NOS490 LICJ-HKMO
Flight info
| Callsign | NOS490 |
|---|---|
| Flight time | 6h 31m |
| Altitude | 37000 |
| Route | PAL6R PAL DCT BEKIV DCT SUBOK DCT ARLOS ARLOS UN4 SALUN N705 MMA P751 DASUM Y234 FYM M872 SEMRU A727 NABED T55 DEDLU M999 JDW G650 RASKA/N0476F380 G650 KONET M308 GETOL/N0474F390 UT129 ALEMU DCT ENORA/N0474F400 UN301 IBNOK |
| Aircraft | B789/M-SDE2FGHIJ1J4J5M1P2RWXYZ/LB1D1G1 |
Departure
| Time | 2026-04-20 14:26 |
|---|---|
| Airport | Falcone–Borsellino Airport (LICJ) |
Arrival
| Time | 2026-04-20 20:57 |
|---|---|
| Airport | Moi International Airport (HKMO) |
| Time | Latitude | Longitude | Altitude | Speed | Heading |
|---|---|---|---|---|---|
| 2026-04-20 13:53 | 38.18399 | 13.10395 | 59 ft | 0 kts | 68° |
| 2026-04-20 13:58 | 38.18399 | 13.10394 | 58 ft | 0 kts | 68° |
| 2026-04-20 14:14 | 38.18399 | 13.10393 | 58 ft | 0 kts | 68° |
| 2026-04-20 14:16 | 38.18399 | 13.10395 | 51 ft | 1 kts | 68° |
| 2026-04-20 14:16 | 38.18405 | 13.10412 | 52 ft | 3 kts | 67° |
| 2026-04-20 14:17 | 38.18412 | 13.10445 | 53 ft | 4 kts | 90° |
| 2026-04-20 14:17 | 38.18402 | 13.10462 | 51 ft | 3 kts | 142° |
| 2026-04-20 14:17 | 38.18357 | 13.10475 | 56 ft | 10 kts | 185° |
| 2026-04-20 14:17 | 38.18304 | 13.10401 | 51 ft | 12 kts | 240° |
| 2026-04-20 14:18 | 38.18239 | 13.10366 | 52 ft | 10 kts | 201° |
| 2026-04-20 14:18 | 38.18188 | 13.10290 | 50 ft | 13 kts | 245° |
| 2026-04-20 14:18 | 38.18146 | 13.10164 | 51 ft | 18 kts | 247° |
| 2026-04-20 14:18 | 38.18090 | 13.09997 | 51 ft | 23 kts | 248° |
| 2026-04-20 14:19 | 38.18024 | 13.09797 | 53 ft | 25 kts | 245° |
| 2026-04-20 14:19 | 38.17953 | 13.09600 | 51 ft | 24 kts | 245° |
| 2026-04-20 14:19 | 38.17906 | 13.09457 | 51 ft | 0 kts | 250° |
| 2026-04-20 14:19 | 38.17905 | 13.09456 | 51 ft | 0 kts | 250° |
| 2026-04-20 14:23 | 38.17903 | 13.09447 | 52 ft | 2 kts | 250° |
| 2026-04-20 14:23 | 38.17893 | 13.09411 | 52 ft | 7 kts | 250° |
| 2026-04-20 14:23 | 38.17865 | 13.09326 | 54 ft | 14 kts | 246° |
| 2026-04-20 14:23 | 38.17815 | 13.09182 | 50 ft | 21 kts | 247° |
| 2026-04-20 14:24 | 38.17747 | 13.08986 | 50 ft | 26 kts | 239° |
| 2026-04-20 14:24 | 38.17619 | 13.08834 | 52 ft | 25 kts | 217° |
| 2026-04-20 14:24 | 38.17503 | 13.08745 | 53 ft | 5 kts | 178° |
| 2026-04-20 14:24 | 38.17497 | 13.08748 | 55 ft | 1 kts | 154° |
| 2026-04-20 14:25 | 38.17487 | 13.08766 | 54 ft | 5 kts | 116° |
| 2026-04-20 14:25 | 38.17489 | 13.08820 | 56 ft | 6 kts | 68° |
| 2026-04-20 14:25 | 38.17515 | 13.08897 | 52 ft | 15 kts | 68° |
| 2026-04-20 14:25 | 38.17624 | 13.09223 | 52 ft | 72 kts | 66° |
| 2026-04-20 14:26 | 38.17913 | 13.10082 | 52 ft | 137 kts | 66° |
| 2026-04-20 14:26 | 38.18358 | 13.11401 | 259 ft | 174 kts | 60° |
| 2026-04-20 14:26 | 38.18823 | 13.12772 | 1154 ft | 171 kts | 66° |
| 2026-04-20 14:26 | 38.19314 | 13.14218 | 1833 ft | 186 kts | 66° |
| 2026-04-20 14:27 | 38.19862 | 13.15847 | 2171 ft | 215 kts | 67° |
| 2026-04-20 14:27 | 38.20471 | 13.17677 | 2719 ft | 228 kts | 67° |
| 2026-04-20 14:27 | 38.21109 | 13.19528 | 3520 ft | 231 kts | 63° |
| 2026-04-20 14:27 | 38.22123 | 13.21143 | 4200 ft | 238 kts | 47° |
| 2026-04-20 14:28 | 38.23199 | 13.22770 | 4909 ft | 243 kts | 51° |
| 2026-04-20 14:28 | 38.24275 | 13.24453 | 5688 ft | 245 kts | 51° |
| 2026-04-20 14:28 | 38.25372 | 13.26130 | 6429 ft | 248 kts | 50° |
| 2026-04-20 14:28 | 38.26488 | 13.27819 | 7143 ft | 251 kts | 50° |
| 2026-04-20 14:29 | 38.27616 | 13.29531 | 7849 ft | 253 kts | 50° |
| 2026-04-20 14:29 | 38.28706 | 13.31263 | 8553 ft | 255 kts | 56° |
| 2026-04-20 14:29 | 38.29204 | 13.33432 | 9181 ft | 260 kts | 88° |
| 2026-04-20 14:29 | 38.28781 | 13.35652 | 9835 ft | 262 kts | 120° |
| 2026-04-20 14:30 | 38.27602 | 13.37418 | 10437 ft | 265 kts | 137° |
| 2026-04-20 14:30 | 38.26237 | 13.39042 | 10881 ft | 275 kts | 143° |
| 2026-04-20 14:30 | 38.24535 | 13.40361 | 10917 ft | 300 kts | 154° |
| 2026-04-20 14:30 | 38.22566 | 13.41594 | 10996 ft | 329 kts | 156° |
| 2026-04-20 14:31 | 38.20442 | 13.42978 | 11154 ft | 353 kts | 152° |
| 2026-04-20 14:31 | 38.18325 | 13.44580 | 11967 ft | 355 kts | 150° |
| 2026-04-20 14:31 | 38.16185 | 13.46205 | 12631 ft | 361 kts | 152° |
| 2026-04-20 14:31 | 38.13990 | 13.47791 | 13343 ft | 366 kts | 153° |
| 2026-04-20 14:32 | 38.11830 | 13.49335 | 13990 ft | 370 kts | 153° |
| 2026-04-20 14:32 | 38.09572 | 13.50977 | 14618 ft | 375 kts | 153° |
| 2026-04-20 14:32 | 38.07300 | 13.52642 | 15239 ft | 379 kts | 153° |
| 2026-04-20 14:32 | 38.04998 | 13.54317 | 15843 ft | 383 kts | 153° |
| 2026-04-20 14:33 | 38.02667 | 13.56003 | 16427 ft | 388 kts | 153° |
| 2026-04-20 14:33 | 38.00313 | 13.57708 | 16995 ft | 393 kts | 153° |
| 2026-04-20 14:33 | 37.97929 | 13.59440 | 17528 ft | 397 kts | 153° |
| 2026-04-20 14:33 | 37.95521 | 13.61187 | 18093 ft | 401 kts | 153° |
| 2026-04-20 14:34 | 37.93087 | 13.62946 | 18663 ft | 403 kts | 153° |
| 2026-04-20 14:34 | 37.90632 | 13.64720 | 19178 ft | 407 kts | 153° |
| 2026-04-20 14:34 | 37.88367 | 13.66821 | 19649 ft | 414 kts | 137° |
| 2026-04-20 14:34 | 37.86579 | 13.69696 | 20151 ft | 420 kts | 120° |
| 2026-04-20 14:35 | 37.85182 | 13.72968 | 20573 ft | 424 kts | 118° |
| 2026-04-20 14:35 | 37.83830 | 13.76295 | 21078 ft | 426 kts | 117° |
| 2026-04-20 14:35 | 37.82477 | 13.79649 | 21540 ft | 429 kts | 118° |
| 2026-04-20 14:35 | 37.81090 | 13.82999 | 22001 ft | 432 kts | 118° |
| 2026-04-20 14:36 | 37.79683 | 13.86366 | 22439 ft | 435 kts | 118° |
| 2026-04-20 14:36 | 37.78271 | 13.89779 | 22828 ft | 439 kts | 117° |
| 2026-04-20 14:36 | 37.76857 | 13.93215 | 23262 ft | 442 kts | 117° |
| 2026-04-20 14:36 | 37.75430 | 13.96662 | 23640 ft | 445 kts | 118° |
| 2026-04-20 14:37 | 37.73985 | 14.00133 | 23987 ft | 447 kts | 118° |
| 2026-04-20 14:37 | 37.72535 | 14.03620 | 24326 ft | 450 kts | 118° |
| 2026-04-20 14:37 | 37.71078 | 14.07128 | 24680 ft | 451 kts | 118° |
| 2026-04-20 14:37 | 37.69634 | 14.10599 | 24970 ft | 454 kts | 118° |
| 2026-04-20 14:38 | 37.68159 | 14.14136 | 25280 ft | 456 kts | 118° |
| 2026-04-20 14:38 | 37.66670 | 14.17704 | 25599 ft | 458 kts | 118° |
| 2026-04-20 14:38 | 37.65178 | 14.21278 | 25920 ft | 461 kts | 118° |
| 2026-04-20 14:38 | 37.63680 | 14.24860 | 26202 ft | 464 kts | 118° |
| 2026-04-20 14:39 | 37.62168 | 14.28470 | 26535 ft | 466 kts | 118° |
| 2026-04-20 14:39 | 37.60650 | 14.32091 | 26859 ft | 468 kts | 118° |
| 2026-04-20 14:39 | 37.59125 | 14.35728 | 27180 ft | 470 kts | 118° |
| 2026-04-20 14:39 | 37.57588 | 14.39387 | 27505 ft | 472 kts | 118° |
| 2026-04-20 14:40 | 37.56046 | 14.43053 | 27799 ft | 475 kts | 118° |
| 2026-04-20 14:40 | 37.54511 | 14.46698 | 28102 ft | 477 kts | 118° |
| 2026-04-20 14:40 | 37.52951 | 14.50398 | 28390 ft | 480 kts | 118° |
| 2026-04-20 14:40 | 37.51379 | 14.54124 | 28727 ft | 482 kts | 118° |
| 2026-04-20 14:41 | 37.49797 | 14.57868 | 29036 ft | 485 kts | 118° |
| 2026-04-20 14:41 | 37.48206 | 14.61630 | 29370 ft | 487 kts | 118° |
| 2026-04-20 14:41 | 37.46608 | 14.65403 | 29674 ft | 489 kts | 118° |
| 2026-04-20 14:41 | 37.45001 | 14.69192 | 29992 ft | 492 kts | 118° |
| 2026-04-20 14:42 | 37.43385 | 14.72998 | 30278 ft | 494 kts | 118° |
| 2026-04-20 14:42 | 37.41760 | 14.76822 | 30553 ft | 496 kts | 118° |
| 2026-04-20 14:42 | 37.40128 | 14.80658 | 30833 ft | 498 kts | 119° |
| 2026-04-20 14:42 | 37.38491 | 14.84500 | 31127 ft | 500 kts | 119° |
| 2026-04-20 14:43 | 37.36843 | 14.88364 | 31385 ft | 502 kts | 119° |
| 2026-04-20 14:43 | 37.35747 | 14.90931 | 31569 ft | 504 kts | 119° |
| 2026-04-20 14:43 | 37.34083 | 14.94824 | 31809 ft | 507 kts | 119° |
| 2026-04-20 14:43 | 37.32408 | 14.98738 | 32047 ft | 510 kts | 119° |
| 2026-04-20 14:44 | 37.30175 | 15.03949 | 32410 ft | 513 kts | 119° |
| 2026-04-20 14:44 | 37.28479 | 15.07901 | 32687 ft | 515 kts | 119° |
| 2026-04-20 14:44 | 37.26775 | 15.11866 | 32954 ft | 517 kts | 119° |
| 2026-04-20 14:44 | 37.25616 | 15.14561 | 33124 ft | 519 kts | 119° |
| 2026-04-20 14:45 | 37.23896 | 15.18558 | 33377 ft | 521 kts | 119° |
| 2026-04-20 14:45 | 37.22171 | 15.22559 | 33644 ft | 523 kts | 119° |
| 2026-04-20 14:45 | 37.20436 | 15.26578 | 33888 ft | 525 kts | 119° |
| 2026-04-20 14:45 | 37.18691 | 15.30616 | 34099 ft | 528 kts | 120° |
| 2026-04-20 14:46 | 37.16937 | 15.34669 | 34289 ft | 530 kts | 120° |
| 2026-04-20 14:46 | 37.15196 | 15.38689 | 34491 ft | 532 kts | 120° |
| 2026-04-20 14:46 | 37.13425 | 15.42770 | 34697 ft | 533 kts | 120° |
| 2026-04-20 14:46 | 37.11650 | 15.46858 | 34978 ft | 533 kts | 120° |
| 2026-04-20 14:47 | 37.09875 | 15.50939 | 35253 ft | 533 kts | 120° |
| 2026-04-20 14:47 | 37.08101 | 15.55013 | 35522 ft | 533 kts | 120° |
| 2026-04-20 14:47 | 37.06322 | 15.59094 | 35788 ft | 533 kts | 120° |
| 2026-04-20 14:48 | 37.02765 | 15.67237 | 36271 ft | 534 kts | 120° |
| 2026-04-20 14:48 | 37.00979 | 15.71319 | 36514 ft | 534 kts | 120° |
| 2026-04-20 14:48 | 36.99192 | 15.75396 | 36785 ft | 534 kts | 120° |
| 2026-04-20 14:48 | 36.97406 | 15.79468 | 37047 ft | 534 kts | 120° |
| 2026-04-20 14:49 | 36.95610 | 15.83556 | 37029 ft | 538 kts | 120° |
| 2026-04-20 14:49 | 36.92041 | 15.91669 | 37031 ft | 533 kts | 120° |
| 2026-04-20 14:50 | 36.88460 | 15.99785 | 37049 ft | 532 kts | 120° |
| 2026-04-20 14:50 | 36.84871 | 16.07900 | 37028 ft | 534 kts | 120° |
| 2026-04-20 14:51 | 36.81270 | 16.16020 | 37036 ft | 535 kts | 120° |
| 2026-04-20 14:51 | 36.77664 | 16.24135 | 37044 ft | 535 kts | 120° |
| 2026-04-20 14:52 | 36.74048 | 16.32249 | 37041 ft | 534 kts | 120° |
| 2026-04-20 14:52 | 36.70433 | 16.40343 | 37045 ft | 535 kts | 120° |
| 2026-04-20 14:53 | 36.66820 | 16.48412 | 37047 ft | 537 kts | 120° |
| 2026-04-20 14:53 | 36.63179 | 16.56525 | 37054 ft | 536 kts | 120° |
| 2026-04-20 14:54 | 36.59538 | 16.64617 | 37052 ft | 535 kts | 120° |
| 2026-04-20 14:54 | 36.55903 | 16.72677 | 37057 ft | 534 kts | 120° |
| 2026-04-20 14:55 | 36.52253 | 16.80748 | 37064 ft | 536 kts | 120° |
| 2026-04-20 14:55 | 36.49063 | 16.89110 | 37085 ft | 536 kts | 109° |
| 2026-04-20 14:56 | 36.46666 | 16.97922 | 37073 ft | 538 kts | 109° |
| 2026-04-20 14:56 | 36.44243 | 17.06723 | 37077 ft | 538 kts | 109° |
| 2026-04-20 14:57 | 36.41834 | 17.15469 | 37069 ft | 539 kts | 109° |
| 2026-04-20 14:57 | 36.39401 | 17.24272 | 37074 ft | 539 kts | 109° |
| 2026-04-20 14:58 | 36.36954 | 17.33087 | 37072 ft | 539 kts | 109° |
| 2026-04-20 14:58 | 36.34508 | 17.41880 | 37066 ft | 540 kts | 109° |
| 2026-04-20 14:59 | 36.32043 | 17.50701 | 37073 ft | 542 kts | 109° |
| 2026-04-20 14:59 | 36.29571 | 17.59529 | 37075 ft | 541 kts | 109° |
| 2026-04-20 15:00 | 36.27097 | 17.68328 | 37076 ft | 539 kts | 109° |
| 2026-04-20 15:00 | 36.24642 | 17.77038 | 37076 ft | 539 kts | 109° |
| 2026-04-20 15:01 | 36.22159 | 17.85815 | 37078 ft | 541 kts | 109° |
| 2026-04-20 15:01 | 36.19661 | 17.94617 | 37082 ft | 541 kts | 109° |
| 2026-04-20 15:02 | 36.17158 | 18.03409 | 37085 ft | 541 kts | 109° |
| 2026-04-20 15:02 | 36.14647 | 18.12201 | 37080 ft | 541 kts | 109° |
| 2026-04-20 15:03 | 36.12131 | 18.20981 | 37085 ft | 541 kts | 109° |
| 2026-04-20 15:03 | 36.09626 | 18.29697 | 37087 ft | 541 kts | 109° |
| 2026-04-20 15:04 | 36.07099 | 18.38460 | 37086 ft | 541 kts | 109° |
| 2026-04-20 15:04 | 36.04567 | 18.47215 | 37077 ft | 541 kts | 109° |
| 2026-04-20 15:05 | 36.02025 | 18.55974 | 37083 ft | 542 kts | 109° |
| 2026-04-20 15:05 | 35.99472 | 18.64744 | 37068 ft | 543 kts | 110° |
| 2026-04-20 15:06 | 35.96906 | 18.73533 | 37075 ft | 544 kts | 110° |
| 2026-04-20 15:06 | 35.94336 | 18.82305 | 37075 ft | 543 kts | 110° |
| 2026-04-20 15:07 | 35.91759 | 18.91076 | 37079 ft | 544 kts | 110° |
| 2026-04-20 15:07 | 35.89175 | 18.99842 | 37083 ft | 544 kts | 110° |
| 2026-04-20 15:08 | 35.86598 | 19.08557 | 37083 ft | 544 kts | 110° |
| 2026-04-20 15:08 | 35.83996 | 19.17331 | 37089 ft | 545 kts | 110° |
| 2026-04-20 15:09 | 35.81391 | 19.26087 | 37088 ft | 543 kts | 110° |
| 2026-04-20 15:09 | 35.78786 | 19.34814 | 37084 ft | 542 kts | 110° |
| 2026-04-20 15:10 | 35.76184 | 19.43508 | 37080 ft | 541 kts | 110° |
| 2026-04-20 15:10 | 35.73568 | 19.52219 | 37092 ft | 544 kts | 110° |
| 2026-04-20 15:11 | 35.70933 | 19.60968 | 37091 ft | 545 kts | 110° |
| 2026-04-20 15:11 | 35.68294 | 19.69702 | 37094 ft | 544 kts | 110° |
| 2026-04-20 15:12 | 35.65656 | 19.78408 | 37094 ft | 543 kts | 110° |
| 2026-04-20 15:12 | 35.63026 | 19.87061 | 37081 ft | 544 kts | 110° |
| 2026-04-20 15:13 | 35.60365 | 19.95788 | 37085 ft | 545 kts | 110° |
| 2026-04-20 15:13 | 35.57694 | 20.04522 | 37087 ft | 546 kts | 110° |
| 2026-04-20 15:14 | 35.55020 | 20.13241 | 37086 ft | 545 kts | 110° |
| 2026-04-20 15:14 | 35.52344 | 20.21939 | 37090 ft | 544 kts | 110° |
| 2026-04-20 15:15 | 35.49661 | 20.30635 | 37083 ft | 544 kts | 110° |
| 2026-04-20 15:15 | 35.46974 | 20.39317 | 37086 ft | 544 kts | 110° |
| 2026-04-20 15:16 | 35.44280 | 20.47995 | 37103 ft | 544 kts | 111° |
| 2026-04-20 15:16 | 35.41586 | 20.56648 | 37082 ft | 546 kts | 111° |
| 2026-04-20 15:17 | 35.38873 | 20.65337 | 37094 ft | 546 kts | 111° |
| 2026-04-20 15:17 | 35.36146 | 20.74043 | 37096 ft | 547 kts | 111° |
| 2026-04-20 15:18 | 35.33417 | 20.82730 | 37080 ft | 547 kts | 111° |
| 2026-04-20 15:18 | 35.30676 | 20.91432 | 37082 ft | 548 kts | 111° |
| 2026-04-20 15:19 | 35.27923 | 21.00143 | 37085 ft | 549 kts | 111° |
| 2026-04-20 15:19 | 35.25169 | 21.08833 | 37080 ft | 547 kts | 111° |
| 2026-04-20 15:20 | 35.22414 | 21.17502 | 37097 ft | 546 kts | 111° |
| 2026-04-20 15:20 | 35.19655 | 21.26156 | 37092 ft | 546 kts | 111° |
| 2026-04-20 15:21 | 35.16907 | 21.34753 | 37087 ft | 546 kts | 111° |
| 2026-04-20 15:21 | 35.14134 | 21.43400 | 37090 ft | 546 kts | 111° |
| 2026-04-20 15:22 | 35.11355 | 21.52045 | 37089 ft | 546 kts | 111° |
| 2026-04-20 15:22 | 35.08572 | 21.60673 | 37088 ft | 546 kts | 111° |
| 2026-04-20 15:23 | 35.05782 | 21.69301 | 37089 ft | 546 kts | 111° |
| 2026-04-20 15:23 | 35.02987 | 21.77917 | 37083 ft | 546 kts | 111° |
| 2026-04-20 15:24 | 35.00199 | 21.86489 | 37095 ft | 548 kts | 111° |
| 2026-04-20 15:24 | 34.97381 | 21.95128 | 37092 ft | 548 kts | 111° |
| 2026-04-20 15:25 | 34.94558 | 22.03758 | 37095 ft | 548 kts | 111° |
| 2026-04-20 15:25 | 34.91726 | 22.12390 | 37095 ft | 548 kts | 111° |
| 2026-04-20 15:26 | 34.88885 | 22.21026 | 37078 ft | 549 kts | 112° |
| 2026-04-20 15:26 | 34.86034 | 22.29669 | 37081 ft | 551 kts | 112° |
| 2026-04-20 15:27 | 34.83171 | 22.38321 | 37081 ft | 550 kts | 112° |
| 2026-04-20 15:27 | 34.80315 | 22.46928 | 37076 ft | 548 kts | 112° |
| 2026-04-20 15:28 | 34.77453 | 22.55530 | 37080 ft | 548 kts | 112° |
| 2026-04-20 15:28 | 34.74589 | 22.64112 | 37076 ft | 548 kts | 112° |
| 2026-04-20 15:29 | 34.71714 | 22.72707 | 37072 ft | 548 kts | 112° |
| 2026-04-20 15:29 | 34.68834 | 22.81288 | 37085 ft | 549 kts | 112° |
| 2026-04-20 15:30 | 34.65942 | 22.89884 | 37085 ft | 551 kts | 112° |
| 2026-04-20 15:30 | 34.63054 | 22.98442 | 37087 ft | 551 kts | 112° |
| 2026-04-20 15:31 | 34.59673 | 23.06783 | 37076 ft | 550 kts | 118° |
| 2026-04-20 15:31 | 34.56726 | 23.13688 | 37084 ft | 550 kts | 117° |
| 2026-04-20 15:32 | 34.53230 | 23.21970 | 37087 ft | 551 kts | 118° |
| 2026-04-20 15:32 | 34.49724 | 23.30184 | 37084 ft | 553 kts | 118° |
| 2026-04-20 15:33 | 34.46208 | 23.38446 | 37081 ft | 551 kts | 118° |
| 2026-04-20 15:33 | 34.42683 | 23.46682 | 37083 ft | 550 kts | 118° |
| 2026-04-20 15:34 | 34.39155 | 23.54921 | 37079 ft | 551 kts | 118° |
| 2026-04-20 15:34 | 34.35619 | 23.63151 | 37068 ft | 552 kts | 118° |
| 2026-04-20 15:35 | 34.32063 | 23.71410 | 37071 ft | 553 kts | 118° |
| 2026-04-20 15:35 | 34.28504 | 23.79658 | 37077 ft | 552 kts | 118° |
| 2026-04-20 15:36 | 34.24940 | 23.87894 | 37070 ft | 552 kts | 118° |
| 2026-04-20 15:36 | 34.21371 | 23.96125 | 37073 ft | 552 kts | 118° |
| 2026-04-20 15:37 | 34.17821 | 24.04291 | 37076 ft | 553 kts | 118° |
| 2026-04-20 15:37 | 34.14237 | 24.12516 | 37074 ft | 553 kts | 118° |
| 2026-04-20 15:38 | 34.10647 | 24.20735 | 37070 ft | 554 kts | 118° |
| 2026-04-20 15:38 | 34.07044 | 24.28966 | 37071 ft | 554 kts | 118° |
| 2026-04-20 15:39 | 34.03435 | 24.37190 | 37071 ft | 554 kts | 119° |
| 2026-04-20 15:39 | 33.99500 | 24.45111 | 37085 ft | 549 kts | 133° |
| 2026-04-20 15:40 | 33.94028 | 24.51444 | 37078 ft | 544 kts | 142° |
| 2026-04-20 15:40 | 33.88365 | 24.57519 | 37073 ft | 546 kts | 142° |
| 2026-04-20 15:41 | 33.82738 | 24.63571 | 37076 ft | 546 kts | 142° |
| 2026-04-20 15:41 | 33.77058 | 24.69652 | 37070 ft | 545 kts | 142° |
| 2026-04-20 15:42 | 33.71405 | 24.75701 | 37073 ft | 544 kts | 142° |
| 2026-04-20 15:42 | 33.65747 | 24.81741 | 37068 ft | 543 kts | 142° |
| 2026-04-20 15:43 | 33.60099 | 24.87760 | 37061 ft | 543 kts | 142° |
| 2026-04-20 15:43 | 33.54428 | 24.93792 | 37063 ft | 545 kts | 142° |
| 2026-04-20 15:44 | 33.48777 | 24.99794 | 37071 ft | 546 kts | 142° |
| 2026-04-20 15:44 | 33.43098 | 25.05814 | 37065 ft | 544 kts | 142° |
| 2026-04-20 15:45 | 33.37432 | 25.11807 | 37064 ft | 542 kts | 142° |
| 2026-04-20 15:45 | 33.31768 | 25.17789 | 37064 ft | 543 kts | 142° |
| 2026-04-20 15:46 | 33.26085 | 25.23779 | 37067 ft | 545 kts | 142° |
| 2026-04-20 15:46 | 33.20393 | 25.29769 | 37066 ft | 546 kts | 142° |
| 2026-04-20 15:47 | 33.14691 | 25.35759 | 37071 ft | 546 kts | 142° |
| 2026-04-20 15:47 | 33.08998 | 25.41728 | 37070 ft | 543 kts | 143° |
| 2026-04-20 15:48 | 33.03327 | 25.47662 | 37067 ft | 542 kts | 143° |
| 2026-04-20 15:48 | 32.97655 | 25.53589 | 37060 ft | 543 kts | 143° |
| 2026-04-20 15:49 | 32.91970 | 25.59517 | 37062 ft | 543 kts | 143° |
| 2026-04-20 15:49 | 32.86277 | 25.65444 | 37062 ft | 544 kts | 143° |
| 2026-04-20 15:50 | 32.80591 | 25.71353 | 37065 ft | 543 kts | 143° |
| 2026-04-20 15:50 | 32.74941 | 25.77214 | 37068 ft | 542 kts | 143° |
| 2026-04-20 15:51 | 32.69265 | 25.83092 | 37063 ft | 540 kts | 143° |
| 2026-04-20 15:51 | 32.63602 | 25.88945 | 37060 ft | 541 kts | 143° |
| 2026-04-20 15:52 | 32.57917 | 25.94811 | 37059 ft | 543 kts | 143° |
| 2026-04-20 15:52 | 32.52217 | 26.00684 | 37065 ft | 541 kts | 143° |
| 2026-04-20 15:53 | 32.43733 | 26.09405 | 37058 ft | 539 kts | 143° |
| 2026-04-20 15:53 | 32.38066 | 26.15216 | 37049 ft | 539 kts | 143° |
| 2026-04-20 15:54 | 32.32386 | 26.21032 | 37077 ft | 540 kts | 143° |
| 2026-04-20 15:54 | 32.26691 | 26.26853 | 37071 ft | 542 kts | 144° |
| 2026-04-20 15:55 | 32.20978 | 26.32682 | 37079 ft | 543 kts | 144° |
| 2026-04-20 15:55 | 32.15265 | 26.38502 | 37072 ft | 541 kts | 144° |
| 2026-04-20 15:56 | 32.09571 | 26.44292 | 37078 ft | 539 kts | 144° |
| 2026-04-20 15:56 | 32.03915 | 26.50033 | 37066 ft | 540 kts | 144° |
| 2026-04-20 15:57 | 31.98209 | 26.55815 | 37068 ft | 541 kts | 144° |
| 2026-04-20 15:57 | 31.92489 | 26.61603 | 37065 ft | 542 kts | 144° |
| 2026-04-20 15:58 | 31.86763 | 26.67385 | 37071 ft | 542 kts | 144° |
| 2026-04-20 15:58 | 31.81038 | 26.73158 | 37073 ft | 542 kts | 144° |
| 2026-04-20 15:59 | 31.75342 | 26.78892 | 37048 ft | 542 kts | 144° |
| 2026-04-20 15:59 | 31.69604 | 26.84656 | 37080 ft | 544 kts | 145° |
| 2026-04-20 16:00 | 31.63819 | 26.90461 | 37077 ft | 543 kts | 145° |
| 2026-04-20 16:00 | 31.58094 | 26.96194 | 37079 ft | 542 kts | 145° |
| 2026-04-20 16:01 | 31.52345 | 27.01942 | 37078 ft | 542 kts | 145° |
| 2026-04-20 16:01 | 31.46622 | 27.07654 | 37082 ft | 541 kts | 145° |
| 2026-04-20 16:02 | 31.40895 | 27.13361 | 37088 ft | 540 kts | 145° |
| 2026-04-20 16:02 | 31.35145 | 27.19078 | 37081 ft | 544 kts | 145° |
| 2026-04-20 16:03 | 31.30001 | 27.25641 | 37111 ft | 556 kts | 128° |
| 2026-04-20 16:03 | 31.25656 | 27.33147 | 37085 ft | 557 kts | 128° |
| 2026-04-20 16:04 | 31.21345 | 27.40596 | 37089 ft | 557 kts | 128° |
| 2026-04-20 16:04 | 31.16997 | 27.48070 | 37084 ft | 556 kts | 128° |
| 2026-04-20 16:05 | 31.12651 | 27.55545 | 37093 ft | 556 kts | 128° |
| 2026-04-20 16:05 | 31.08218 | 27.62945 | 37087 ft | 555 kts | 129° |
| 2026-04-20 16:06 | 31.03804 | 27.70353 | 37075 ft | 557 kts | 129° |
| 2026-04-20 16:06 | 30.99363 | 27.77774 | 37075 ft | 559 kts | 129° |
| 2026-04-20 16:07 | 30.94901 | 27.85219 | 37076 ft | 559 kts | 129° |
| 2026-04-20 16:07 | 30.90452 | 27.92633 | 37075 ft | 558 kts | 129° |
| 2026-04-20 16:08 | 30.86024 | 27.99990 | 37074 ft | 557 kts | 129° |
| 2026-04-20 16:08 | 30.81571 | 28.07382 | 37070 ft | 557 kts | 129° |
| 2026-04-20 16:09 | 30.77125 | 28.14743 | 37070 ft | 556 kts | 129° |
| 2026-04-20 16:09 | 30.72679 | 28.22094 | 37065 ft | 556 kts | 129° |
| 2026-04-20 16:10 | 30.68203 | 28.29478 | 37066 ft | 558 kts | 129° |
| 2026-04-20 16:10 | 30.63729 | 28.36850 | 37073 ft | 560 kts | 130° |
| 2026-04-20 16:11 | 30.59240 | 28.44226 | 37068 ft | 563 kts | 130° |
| 2026-04-20 16:11 | 30.54730 | 28.51632 | 37052 ft | 561 kts | 130° |
| 2026-04-20 16:12 | 30.50229 | 28.59000 | 37051 ft | 560 kts | 130° |
| 2026-04-20 16:12 | 30.45721 | 28.66372 | 37055 ft | 561 kts | 130° |
| 2026-04-20 16:13 | 30.41199 | 28.73750 | 37043 ft | 562 kts | 130° |
| 2026-04-20 16:13 | 30.36664 | 28.81138 | 37043 ft | 563 kts | 130° |
| 2026-04-20 16:14 | 30.32117 | 28.88531 | 37042 ft | 563 kts | 130° |
| 2026-04-20 16:14 | 30.27575 | 28.95902 | 37028 ft | 561 kts | 130° |
| 2026-04-20 16:15 | 30.23042 | 29.03245 | 37001 ft | 559 kts | 130° |
| 2026-04-20 16:15 | 30.18522 | 29.10550 | 37032 ft | 565 kts | 130° |
| 2026-04-20 16:16 | 30.13970 | 29.17942 | 37029 ft | 564 kts | 130° |
| 2026-04-20 16:16 | 30.09445 | 29.25343 | 37024 ft | 563 kts | 129° |
| 2026-04-20 16:17 | 30.05759 | 29.31527 | 37025 ft | 562 kts | 130° |
| 2026-04-20 16:17 | 30.01263 | 29.38910 | 37021 ft | 562 kts | 130° |
| 2026-04-20 16:18 | 29.96790 | 29.46320 | 37023 ft | 564 kts | 130° |
| 2026-04-20 16:18 | 29.92285 | 29.53729 | 37026 ft | 565 kts | 130° |
| 2026-04-20 16:19 | 29.87776 | 29.61151 | 37023 ft | 563 kts | 130° |
| 2026-04-20 16:19 | 29.83280 | 29.68529 | 37024 ft | 562 kts | 130° |
| 2026-04-20 16:20 | 29.78815 | 29.75845 | 37018 ft | 561 kts | 130° |
| 2026-04-20 16:20 | 29.74325 | 29.83191 | 37015 ft | 561 kts | 130° |
| 2026-04-20 16:21 | 29.69819 | 29.90545 | 37023 ft | 562 kts | 130° |
| 2026-04-20 16:21 | 29.65295 | 29.97919 | 37024 ft | 564 kts | 130° |
| 2026-04-20 16:22 | 29.60768 | 30.05283 | 37026 ft | 564 kts | 130° |
| 2026-04-20 16:22 | 29.56243 | 30.12633 | 37014 ft | 562 kts | 130° |
| 2026-04-20 16:23 | 29.51723 | 30.19959 | 37013 ft | 561 kts | 131° |
| 2026-04-20 16:23 | 29.47212 | 30.27257 | 37020 ft | 561 kts | 131° |
| 2026-04-20 16:24 | 29.42712 | 30.34528 | 37009 ft | 562 kts | 131° |
| 2026-04-20 16:24 | 29.37919 | 30.41505 | 37027 ft | 552 kts | 141° |
| 2026-04-20 16:25 | 29.32565 | 30.47885 | 37029 ft | 555 kts | 141° |
| 2026-04-20 16:25 | 29.27225 | 30.54258 | 37023 ft | 554 kts | 141° |
| 2026-04-20 16:26 | 29.21886 | 30.60614 | 37026 ft | 553 kts | 141° |
| 2026-04-20 16:26 | 29.16551 | 30.66954 | 37018 ft | 552 kts | 141° |
| 2026-04-20 16:27 | 29.11213 | 30.73291 | 37017 ft | 552 kts | 141° |
| 2026-04-20 16:27 | 29.05922 | 30.79558 | 37016 ft | 551 kts | 141° |
| 2026-04-20 16:28 | 29.00583 | 30.85875 | 37017 ft | 555 kts | 141° |
| 2026-04-20 16:28 | 28.95207 | 30.92225 | 37021 ft | 556 kts | 141° |
| 2026-04-20 16:29 | 28.89824 | 30.98574 | 37012 ft | 556 kts | 141° |
| 2026-04-20 16:29 | 28.84440 | 31.04912 | 37012 ft | 555 kts | 141° |
| 2026-04-20 16:30 | 28.79098 | 31.11193 | 37009 ft | 555 kts | 141° |
| 2026-04-20 16:30 | 28.73715 | 31.17510 | 37008 ft | 555 kts | 141° |
| 2026-04-20 16:31 | 28.68403 | 31.23908 | 36989 ft | 558 kts | 139° |
| 2026-04-20 16:31 | 28.63145 | 31.30493 | 37030 ft | 565 kts | 140° |
| 2026-04-20 16:32 | 28.57876 | 31.37149 | 37016 ft | 564 kts | 139° |
| 2026-04-20 16:32 | 28.52615 | 31.43751 | 37024 ft | 563 kts | 140° |
| 2026-04-20 16:33 | 28.47350 | 31.50354 | 37024 ft | 564 kts | 140° |
| 2026-04-20 16:33 | 28.42083 | 31.56957 | 37021 ft | 564 kts | 140° |
| 2026-04-20 16:34 | 28.36805 | 31.63549 | 37018 ft | 565 kts | 140° |
| 2026-04-20 16:34 | 28.31523 | 31.70151 | 36968 ft | 565 kts | 140° |
| 2026-04-20 16:35 | 28.26197 | 31.76780 | 37015 ft | 572 kts | 140° |
| 2026-04-20 16:35 | 28.20847 | 31.83451 | 37016 ft | 570 kts | 141° |
| 2026-04-20 16:36 | 28.15495 | 31.90090 | 37011 ft | 571 kts | 141° |
| 2026-04-20 16:36 | 28.10137 | 31.96743 | 37014 ft | 571 kts | 141° |
| 2026-04-20 16:37 | 28.04533 | 32.02863 | 37033 ft | 552 kts | 155° |
| 2026-04-20 16:37 | 28.01323 | 32.05138 | 37038 ft | 537 kts | 165° |
| 2026-04-20 16:37 | 27.97953 | 32.06816 | 37037 ft | 521 kts | 173° |
| 2026-04-20 16:38 | 27.91087 | 32.09087 | 37010 ft | 514 kts | 177° |
| 2026-04-20 16:38 | 27.84192 | 32.11290 | 36999 ft | 514 kts | 177° |
| 2026-04-20 16:39 | 27.77314 | 32.13486 | 36997 ft | 513 kts | 177° |
| 2026-04-20 16:39 | 27.70449 | 32.15674 | 36985 ft | 512 kts | 177° |
| 2026-04-20 16:40 | 27.63584 | 32.17859 | 36966 ft | 512 kts | 177° |
| 2026-04-20 16:40 | 27.56716 | 32.20041 | 36953 ft | 513 kts | 177° |
| 2026-04-20 16:41 | 27.49821 | 32.22232 | 36948 ft | 514 kts | 177° |
| 2026-04-20 16:41 | 27.42928 | 32.24416 | 36938 ft | 514 kts | 177° |
| 2026-04-20 16:42 | 27.36119 | 32.26654 | 36939 ft | 518 kts | 172° |
| 2026-04-20 16:42 | 27.32770 | 32.28330 | 36957 ft | 536 kts | 163° |
| 2026-04-20 16:42 | 27.29569 | 32.30583 | 36952 ft | 553 kts | 154° |
| 2026-04-20 16:43 | 27.26597 | 32.33424 | 36951 ft | 568 kts | 144° |
| 2026-04-20 16:43 | 27.23947 | 32.36783 | 36949 ft | 577 kts | 139° |
| 2026-04-20 16:43 | 27.18823 | 32.43745 | 36942 ft | 578 kts | 138° |
| 2026-04-20 16:44 | 27.13706 | 32.50702 | 36939 ft | 577 kts | 139° |
| 2026-04-20 16:44 | 27.08589 | 32.57629 | 36929 ft | 577 kts | 139° |
| 2026-04-20 16:45 | 27.03486 | 32.64550 | 36914 ft | 574 kts | 139° |
| 2026-04-20 16:45 | 26.98356 | 32.71465 | 36918 ft | 576 kts | 139° |
| 2026-04-20 16:46 | 26.93240 | 32.78380 | 36908 ft | 576 kts | 139° |
| 2026-04-20 16:46 | 26.88117 | 32.85272 | 36911 ft | 576 kts | 139° |
| 2026-04-20 16:47 | 26.82986 | 32.92179 | 36894 ft | 575 kts | 139° |
| 2026-04-20 16:47 | 26.77866 | 32.99050 | 36895 ft | 574 kts | 139° |
| 2026-04-20 16:48 | 26.72781 | 33.05870 | 36905 ft | 575 kts | 139° |
| 2026-04-20 16:48 | 26.67653 | 33.12734 | 36894 ft | 575 kts | 139° |
| 2026-04-20 16:49 | 26.62519 | 33.19597 | 36906 ft | 574 kts | 140° |
| 2026-04-20 16:49 | 26.57385 | 33.26447 | 36904 ft | 575 kts | 140° |
| 2026-04-20 16:50 | 26.52243 | 33.33300 | 36909 ft | 576 kts | 140° |
| 2026-04-20 16:50 | 26.47093 | 33.40151 | 36912 ft | 574 kts | 140° |
| 2026-04-20 16:51 | 26.41952 | 33.46982 | 36897 ft | 575 kts | 140° |
| 2026-04-20 16:51 | 26.36800 | 33.53818 | 36904 ft | 575 kts | 140° |
| 2026-04-20 16:52 | 26.31681 | 33.60599 | 36899 ft | 574 kts | 140° |
| 2026-04-20 16:52 | 26.26537 | 33.67404 | 36900 ft | 574 kts | 140° |
| 2026-04-20 16:53 | 26.21401 | 33.74192 | 36900 ft | 573 kts | 140° |
| 2026-04-20 16:53 | 26.16242 | 33.80987 | 36899 ft | 574 kts | 140° |
| 2026-04-20 16:54 | 26.11093 | 33.87774 | 36900 ft | 574 kts | 140° |
| 2026-04-20 16:54 | 26.05937 | 33.94549 | 36897 ft | 573 kts | 140° |
| 2026-04-20 16:55 | 26.00803 | 34.01296 | 36888 ft | 570 kts | 139° |
| 2026-04-20 16:55 | 25.95677 | 34.08008 | 36890 ft | 569 kts | 139° |
| 2026-04-20 16:56 | 25.90580 | 34.14684 | 36889 ft | 570 kts | 139° |
| 2026-04-20 16:56 | 25.85457 | 34.21383 | 36891 ft | 569 kts | 140° |
| 2026-04-20 16:57 | 25.80340 | 34.28063 | 36893 ft | 567 kts | 140° |
| 2026-04-20 16:57 | 25.75506 | 34.34365 | 36892 ft | 568 kts | 140° |
| 2026-04-20 16:58 | 25.70384 | 34.41034 | 36886 ft | 568 kts | 140° |
| 2026-04-20 16:58 | 25.65250 | 34.47708 | 36872 ft | 568 kts | 140° |
| 2026-04-20 16:59 | 25.60120 | 34.54368 | 36878 ft | 567 kts | 140° |
| 2026-04-20 16:59 | 25.54728 | 34.60627 | 36883 ft | 559 kts | 146° |
| 2026-04-20 17:00 | 25.46483 | 34.69687 | 36892 ft | 558 kts | 146° |
| 2026-04-20 17:01 | 25.40954 | 34.75718 | 36894 ft | 558 kts | 145° |
| 2026-04-20 17:01 | 25.35433 | 34.81759 | 36892 ft | 557 kts | 146° |
| 2026-04-20 17:02 | 25.29928 | 34.87755 | 36893 ft | 556 kts | 145° |
| 2026-04-20 17:02 | 25.24427 | 34.93751 | 36896 ft | 555 kts | 146° |
| 2026-04-20 17:03 | 25.19844 | 34.98733 | 36898 ft | 557 kts | 146° |
| 2026-04-20 17:03 | 25.14319 | 35.04738 | 36868 ft | 557 kts | 146° |
| 2026-04-20 17:04 | 25.08814 | 35.10711 | 36906 ft | 555 kts | 146° |
| 2026-04-20 17:04 | 25.03298 | 35.16678 | 36889 ft | 555 kts | 146° |
| 2026-04-20 17:05 | 24.97761 | 35.22609 | 36897 ft | 555 kts | 146° |
| 2026-04-20 17:05 | 24.92238 | 35.28548 | 36905 ft | 554 kts | 146° |
| 2026-04-20 17:06 | 24.86710 | 35.34466 | 36903 ft | 554 kts | 146° |
| 2026-04-20 17:06 | 24.81190 | 35.40378 | 36900 ft | 553 kts | 146° |
| 2026-04-20 17:07 | 24.75674 | 35.46274 | 36885 ft | 551 kts | 146° |
| 2026-04-20 17:07 | 24.70213 | 35.52102 | 36888 ft | 549 kts | 146° |
| 2026-04-20 17:08 | 24.64732 | 35.57946 | 36877 ft | 549 kts | 146° |
| 2026-04-20 17:08 | 24.59245 | 35.63788 | 36877 ft | 549 kts | 146° |
| 2026-04-20 17:09 | 24.53759 | 35.69623 | 36880 ft | 549 kts | 146° |
| 2026-04-20 17:09 | 24.48262 | 35.75461 | 36876 ft | 549 kts | 146° |
| 2026-04-20 17:10 | 24.42738 | 35.81318 | 36876 ft | 553 kts | 146° |
| 2026-04-20 17:10 | 24.37242 | 35.87144 | 36878 ft | 554 kts | 145° |
| 2026-04-20 17:11 | 24.31690 | 35.93016 | 36881 ft | 554 kts | 145° |
| 2026-04-20 17:11 | 24.26145 | 35.98877 | 36877 ft | 553 kts | 146° |
| 2026-04-20 17:12 | 24.20601 | 36.04727 | 36872 ft | 552 kts | 146° |
| 2026-04-20 17:12 | 24.15075 | 36.10551 | 36867 ft | 551 kts | 146° |
| 2026-04-20 17:13 | 24.09586 | 36.16328 | 36866 ft | 550 kts | 146° |
| 2026-04-20 17:13 | 24.04064 | 36.22133 | 36875 ft | 550 kts | 145° |
| 2026-04-20 17:14 | 23.98531 | 36.27943 | 36866 ft | 552 kts | 145° |
| 2026-04-20 17:14 | 23.92981 | 36.33764 | 36872 ft | 552 kts | 145° |
| 2026-04-20 17:15 | 23.87459 | 36.39547 | 36863 ft | 552 kts | 145° |
| 2026-04-20 17:15 | 23.81913 | 36.45348 | 36866 ft | 552 kts | 145° |
| 2026-04-20 17:16 | 23.76367 | 36.51143 | 36859 ft | 552 kts | 145° |
| 2026-04-20 17:16 | 23.70815 | 36.56936 | 36855 ft | 550 kts | 145° |
| 2026-04-20 17:17 | 23.65291 | 36.62694 | 36855 ft | 548 kts | 145° |
| 2026-04-20 17:17 | 23.59777 | 36.68432 | 36849 ft | 547 kts | 145° |
| 2026-04-20 17:18 | 23.54265 | 36.74162 | 36850 ft | 548 kts | 145° |
| 2026-04-20 17:18 | 23.48771 | 36.79867 | 36853 ft | 549 kts | 145° |
| 2026-04-20 17:19 | 23.43234 | 36.85610 | 36863 ft | 549 kts | 145° |
| 2026-04-20 17:19 | 23.37692 | 36.91350 | 36861 ft | 549 kts | 145° |
| 2026-04-20 17:20 | 23.32154 | 36.97080 | 36841 ft | 548 kts | 144° |
| 2026-04-20 17:20 | 23.26627 | 37.02791 | 36846 ft | 547 kts | 144° |
| 2026-04-20 17:21 | 23.21106 | 37.08489 | 36847 ft | 546 kts | 144° |
| 2026-04-20 17:21 | 23.15596 | 37.14169 | 36840 ft | 546 kts | 144° |
| 2026-04-20 17:22 | 23.10086 | 37.19842 | 36841 ft | 545 kts | 144° |
| 2026-04-20 17:22 | 23.04611 | 37.25472 | 36837 ft | 545 kts | 144° |
| 2026-04-20 17:23 | 22.99100 | 37.31133 | 36841 ft | 546 kts | 144° |
| 2026-04-20 17:23 | 22.93597 | 37.36782 | 36822 ft | 542 kts | 144° |
| 2026-04-20 17:24 | 22.88109 | 37.42403 | 36824 ft | 542 kts | 144° |
| 2026-04-20 17:24 | 22.82631 | 37.48011 | 36828 ft | 542 kts | 144° |
| 2026-04-20 17:25 | 22.77143 | 37.53622 | 36825 ft | 543 kts | 143° |
| 2026-04-20 17:25 | 22.72300 | 37.60033 | 36822 ft | 556 kts | 131° |
| 2026-04-20 17:26 | 22.67826 | 37.66869 | 36823 ft | 557 kts | 131° |
| 2026-04-20 17:26 | 22.63377 | 37.73663 | 36820 ft | 556 kts | 131° |
| 2026-04-20 17:27 | 22.58906 | 37.80468 | 36819 ft | 554 kts | 131° |
| 2026-04-20 17:27 | 22.54453 | 37.87251 | 36818 ft | 553 kts | 131° |
| 2026-04-20 17:28 | 22.49977 | 37.94046 | 36822 ft | 555 kts | 131° |
| 2026-04-20 17:28 | 22.45496 | 38.00852 | 36829 ft | 556 kts | 131° |
| 2026-04-20 17:29 | 22.41001 | 38.07662 | 36831 ft | 556 kts | 131° |
| 2026-04-20 17:29 | 22.36510 | 38.14464 | 36829 ft | 556 kts | 131° |
| 2026-04-20 17:30 | 22.32022 | 38.21249 | 36814 ft | 554 kts | 131° |
| 2026-04-20 17:30 | 22.27552 | 38.28000 | 36808 ft | 551 kts | 131° |
| 2026-04-20 17:31 | 22.23120 | 38.34679 | 36810 ft | 551 kts | 131° |
| 2026-04-20 17:31 | 22.18657 | 38.41402 | 36804 ft | 551 kts | 131° |
| 2026-04-20 17:32 | 22.14186 | 38.48125 | 36799 ft | 551 kts | 131° |
| 2026-04-20 17:32 | 22.09727 | 38.54825 | 36798 ft | 549 kts | 131° |
| 2026-04-20 17:33 | 22.05274 | 38.61504 | 36799 ft | 548 kts | 131° |
| 2026-04-20 17:33 | 22.00818 | 38.68181 | 36797 ft | 548 kts | 131° |
| 2026-04-20 17:34 | 21.96370 | 38.74840 | 36799 ft | 547 kts | 131° |
| 2026-04-20 17:34 | 21.91915 | 38.81498 | 36797 ft | 547 kts | 131° |
| 2026-04-20 17:35 | 21.87451 | 38.88162 | 36789 ft | 547 kts | 131° |
| 2026-04-20 17:35 | 21.83028 | 38.94757 | 36795 ft | 547 kts | 131° |
| 2026-04-20 17:36 | 21.78563 | 39.01407 | 36804 ft | 548 kts | 131° |
| 2026-04-20 17:36 | 21.73392 | 39.07223 | 36827 ft | 531 kts | 152° |
| 2026-04-20 17:37 | 21.66989 | 39.10801 | 36825 ft | 510 kts | 171° |
| 2026-04-20 17:37 | 21.63580 | 39.11695 | 36826 ft | 499 kts | 180° |
| 2026-04-20 17:37 | 21.60168 | 39.12006 | 36827 ft | 487 kts | 189° |
| 2026-04-20 17:38 | 21.53412 | 39.11862 | 36813 ft | 485 kts | 190° |
| 2026-04-20 17:38 | 21.46646 | 39.11679 | 36807 ft | 486 kts | 190° |
| 2026-04-20 17:39 | 21.39868 | 39.11511 | 36799 ft | 487 kts | 189° |
| 2026-04-20 17:39 | 21.33130 | 39.11338 | 36806 ft | 487 kts | 189° |
| 2026-04-20 17:40 | 21.26349 | 39.11166 | 36810 ft | 487 kts | 189° |
| 2026-04-20 17:40 | 21.19572 | 39.10993 | 36796 ft | 487 kts | 189° |
| 2026-04-20 17:41 | 21.12808 | 39.10822 | 36809 ft | 486 kts | 189° |
| 2026-04-20 17:41 | 21.06054 | 39.10650 | 36803 ft | 485 kts | 189° |
| 2026-04-20 17:42 | 20.99313 | 39.10479 | 36812 ft | 484 kts | 189° |
| 2026-04-20 17:42 | 20.92579 | 39.10308 | 36810 ft | 483 kts | 189° |
| 2026-04-20 17:43 | 20.85850 | 39.10137 | 36807 ft | 485 kts | 189° |
| 2026-04-20 17:43 | 20.79079 | 39.09966 | 36809 ft | 487 kts | 189° |
| 2026-04-20 17:44 | 20.72346 | 39.09796 | 36813 ft | 486 kts | 189° |
| 2026-04-20 17:44 | 20.65590 | 39.09626 | 36802 ft | 486 kts | 189° |
| 2026-04-20 17:45 | 20.58822 | 39.09455 | 36802 ft | 486 kts | 189° |
| 2026-04-20 17:45 | 20.52057 | 39.09285 | 36803 ft | 486 kts | 189° |
| 2026-04-20 17:46 | 20.45284 | 39.09114 | 36804 ft | 487 kts | 189° |
| 2026-04-20 17:46 | 20.38511 | 39.08944 | 36806 ft | 487 kts | 189° |
| 2026-04-20 17:47 | 20.31725 | 39.08774 | 36804 ft | 487 kts | 189° |
| 2026-04-20 17:47 | 20.24983 | 39.08605 | 36803 ft | 486 kts | 189° |
| 2026-04-20 17:48 | 20.18222 | 39.08435 | 36800 ft | 486 kts | 189° |
| 2026-04-20 17:48 | 20.11463 | 39.08265 | 36809 ft | 487 kts | 189° |
| 2026-04-20 17:49 | 20.04678 | 39.08096 | 36818 ft | 487 kts | 189° |
| 2026-04-20 17:49 | 19.99045 | 39.07955 | 36818 ft | 487 kts | 189° |
| 2026-04-20 17:50 | 19.92253 | 39.07786 | 36810 ft | 487 kts | 189° |
| 2026-04-20 17:50 | 19.85461 | 39.07616 | 36785 ft | 489 kts | 189° |
| 2026-04-20 17:51 | 19.78655 | 39.07447 | 36798 ft | 488 kts | 189° |
| 2026-04-20 17:51 | 19.71897 | 39.07278 | 36788 ft | 488 kts | 189° |
| 2026-04-20 17:52 | 19.65122 | 39.07110 | 36787 ft | 487 kts | 189° |
| 2026-04-20 17:52 | 19.58344 | 39.06941 | 36782 ft | 487 kts | 189° |
| 2026-04-20 17:53 | 19.51579 | 39.06773 | 36801 ft | 486 kts | 189° |
| 2026-04-20 17:53 | 19.44818 | 39.06605 | 36801 ft | 486 kts | 189° |
| 2026-04-20 17:54 | 19.38062 | 39.06437 | 36785 ft | 486 kts | 189° |
| 2026-04-20 17:54 | 19.31270 | 39.06267 | 36798 ft | 489 kts | 189° |
| 2026-04-20 17:55 | 19.24464 | 39.06101 | 36788 ft | 489 kts | 189° |
| 2026-04-20 17:55 | 19.17697 | 39.05932 | 36792 ft | 489 kts | 189° |
| 2026-04-20 17:56 | 19.10863 | 39.05703 | 36798 ft | 486 kts | 191° |
| 2026-04-20 17:56 | 19.04124 | 39.05337 | 36789 ft | 489 kts | 190° |
| 2026-04-20 17:57 | 18.97331 | 39.04959 | 36795 ft | 488 kts | 191° |
| 2026-04-20 17:57 | 18.90544 | 39.04579 | 36795 ft | 488 kts | 190° |
| 2026-04-20 17:58 | 18.83753 | 39.04204 | 36782 ft | 488 kts | 190° |
| 2026-04-20 17:58 | 18.76951 | 39.03824 | 36784 ft | 489 kts | 190° |
| 2026-04-20 17:59 | 18.70188 | 39.03451 | 36790 ft | 490 kts | 190° |
| 2026-04-20 17:59 | 18.63379 | 39.03072 | 36787 ft | 489 kts | 190° |
| 2026-04-20 18:00 | 18.56581 | 39.02696 | 36787 ft | 488 kts | 190° |
| 2026-04-20 18:00 | 18.49803 | 39.02321 | 36782 ft | 488 kts | 190° |
| 2026-04-20 18:01 | 18.43020 | 39.01946 | 36782 ft | 488 kts | 190° |
| 2026-04-20 18:01 | 18.36245 | 39.01571 | 36782 ft | 487 kts | 190° |
| 2026-04-20 18:02 | 18.29464 | 39.01196 | 36783 ft | 489 kts | 189° |
| 2026-04-20 18:02 | 18.22651 | 39.00821 | 36786 ft | 490 kts | 189° |
| 2026-04-20 18:03 | 18.15872 | 39.00470 | 36792 ft | 491 kts | 187° |
| 2026-04-20 18:03 | 18.09034 | 39.00218 | 37150 ft | 492 kts | 189° |
| 2026-04-20 18:03 | 18.05618 | 39.00078 | 37448 ft | 492 kts | 188° |
| 2026-04-20 18:04 | 18.02190 | 38.99969 | 37717 ft | 493 kts | 188° |
| 2026-04-20 18:04 | 17.95289 | 38.99725 | 37782 ft | 496 kts | 188° |
| 2026-04-20 18:05 | 17.84996 | 38.99355 | 37783 ft | 491 kts | 188° |
| 2026-04-20 18:05 | 17.78198 | 38.99107 | 37796 ft | 491 kts | 188° |
| 2026-04-20 18:06 | 17.71364 | 38.98863 | 37783 ft | 491 kts | 188° |
| 2026-04-20 18:06 | 17.64529 | 38.98617 | 37781 ft | 490 kts | 188° |
| 2026-04-20 18:07 | 17.57711 | 38.98373 | 37783 ft | 490 kts | 188° |
| 2026-04-20 18:07 | 17.50876 | 38.98127 | 37789 ft | 492 kts | 187° |
| 2026-04-20 18:08 | 17.44014 | 38.97882 | 37789 ft | 494 kts | 187° |
| 2026-04-20 18:08 | 17.37184 | 38.97634 | 37788 ft | 494 kts | 188° |
| 2026-04-20 18:09 | 17.30308 | 38.97381 | 37804 ft | 495 kts | 187° |
| 2026-04-20 18:09 | 17.23417 | 38.97130 | 37796 ft | 496 kts | 187° |
| 2026-04-20 18:10 | 17.16514 | 38.96877 | 37795 ft | 496 kts | 187° |
| 2026-04-20 18:10 | 17.09615 | 38.96626 | 37788 ft | 496 kts | 187° |
| 2026-04-20 18:11 | 17.02725 | 38.96375 | 37794 ft | 495 kts | 187° |
| 2026-04-20 18:11 | 16.95829 | 38.96124 | 37797 ft | 495 kts | 187° |
| 2026-04-20 18:12 | 16.89001 | 38.95875 | 37789 ft | 494 kts | 187° |
| 2026-04-20 18:12 | 16.82129 | 38.95625 | 37797 ft | 494 kts | 187° |
| 2026-04-20 18:13 | 16.75261 | 38.95375 | 37792 ft | 493 kts | 187° |
| 2026-04-20 18:13 | 16.68386 | 38.95125 | 37800 ft | 496 kts | 187° |
| 2026-04-20 18:14 | 16.61479 | 38.94875 | 37804 ft | 497 kts | 187° |
| 2026-04-20 18:14 | 16.54566 | 38.94624 | 37799 ft | 497 kts | 187° |
| 2026-04-20 18:15 | 16.47643 | 38.94374 | 37807 ft | 497 kts | 187° |
| 2026-04-20 18:15 | 16.40773 | 38.94125 | 37803 ft | 497 kts | 187° |
| 2026-04-20 18:16 | 16.33873 | 38.93875 | 37805 ft | 496 kts | 187° |
| 2026-04-20 18:16 | 16.26974 | 38.93625 | 37825 ft | 496 kts | 187° |
| 2026-04-20 18:17 | 16.20082 | 38.93376 | 37829 ft | 495 kts | 187° |
| 2026-04-20 18:17 | 16.13195 | 38.93128 | 37836 ft | 496 kts | 187° |
| 2026-04-20 18:18 | 16.06278 | 38.92878 | 37851 ft | 498 kts | 187° |
| 2026-04-20 18:18 | 15.99337 | 38.92628 | 37852 ft | 498 kts | 187° |
| 2026-04-20 18:19 | 15.92420 | 38.92379 | 37871 ft | 497 kts | 187° |
| 2026-04-20 18:19 | 15.85501 | 38.92129 | 37873 ft | 498 kts | 186° |
| 2026-04-20 18:20 | 15.78616 | 38.91882 | 37874 ft | 498 kts | 186° |
| 2026-04-20 18:20 | 15.71674 | 38.91632 | 37888 ft | 498 kts | 186° |
| 2026-04-20 18:21 | 15.64760 | 38.91384 | 37891 ft | 496 kts | 187° |
| 2026-04-20 18:21 | 15.57842 | 38.91134 | 37907 ft | 498 kts | 186° |
| 2026-04-20 18:22 | 15.50921 | 38.90886 | 37915 ft | 496 kts | 186° |
| 2026-04-20 18:22 | 15.44009 | 38.90639 | 37913 ft | 497 kts | 186° |
| 2026-04-20 18:23 | 15.37077 | 38.90390 | 37922 ft | 498 kts | 186° |
| 2026-04-20 18:23 | 15.30148 | 38.90142 | 37934 ft | 498 kts | 186° |
| 2026-04-20 18:24 | 15.23203 | 38.90101 | 37944 ft | 500 kts | 184° |
| 2026-04-20 18:24 | 15.16245 | 38.90053 | 37951 ft | 500 kts | 184° |
| 2026-04-20 18:25 | 15.09333 | 38.90070 | 37940 ft | 500 kts | 184° |
| 2026-04-20 18:25 | 15.02358 | 38.90049 | 37937 ft | 501 kts | 184° |
| 2026-04-20 18:26 | 14.95378 | 38.90050 | 37935 ft | 500 kts | 184° |
| 2026-04-20 18:26 | 14.88426 | 38.90039 | 37932 ft | 499 kts | 184° |
| 2026-04-20 18:27 | 14.81484 | 38.90033 | 37910 ft | 499 kts | 184° |
| 2026-04-20 18:27 | 14.74548 | 38.90026 | 37899 ft | 497 kts | 184° |
| 2026-04-20 18:28 | 14.67674 | 38.90018 | 37906 ft | 498 kts | 184° |
| 2026-04-20 18:28 | 14.60735 | 38.90011 | 37913 ft | 498 kts | 184° |
| 2026-04-20 18:29 | 14.53811 | 38.90004 | 37920 ft | 497 kts | 184° |
| 2026-04-20 18:29 | 14.46895 | 38.89986 | 37920 ft | 496 kts | 184° |
| 2026-04-20 18:30 | 14.39989 | 38.89881 | 37921 ft | 496 kts | 184° |
| 2026-04-20 18:30 | 14.33080 | 38.89821 | 37920 ft | 497 kts | 184° |
| 2026-04-20 18:31 | 14.26158 | 38.89738 | 37950 ft | 498 kts | 184° |
| 2026-04-20 18:31 | 14.19220 | 38.89667 | 37952 ft | 498 kts | 184° |
| 2026-04-20 18:32 | 14.12302 | 38.89590 | 37942 ft | 497 kts | 184° |
| 2026-04-20 18:32 | 14.05394 | 38.89515 | 37948 ft | 496 kts | 184° |
| 2026-04-20 18:33 | 13.98527 | 38.89411 | 37949 ft | 496 kts | 185° |
| 2026-04-20 18:33 | 13.91613 | 38.89270 | 37955 ft | 498 kts | 184° |
| 2026-04-20 18:34 | 13.84683 | 38.89157 | 37945 ft | 498 kts | 185° |
| 2026-04-20 18:34 | 13.77771 | 38.89024 | 37951 ft | 497 kts | 184° |
| 2026-04-20 18:35 | 13.70844 | 38.88904 | 37937 ft | 498 kts | 184° |
| 2026-04-20 18:35 | 13.63919 | 38.88776 | 37911 ft | 498 kts | 184° |
| 2026-04-20 18:36 | 13.56984 | 38.88652 | 37926 ft | 497 kts | 184° |
| 2026-04-20 18:36 | 13.50106 | 38.88529 | 37912 ft | 497 kts | 185° |
| 2026-04-20 18:37 | 13.43209 | 38.88404 | 37898 ft | 496 kts | 184° |
| 2026-04-20 18:37 | 13.36299 | 38.88280 | 37893 ft | 497 kts | 184° |
| 2026-04-20 18:38 | 13.30543 | 38.88176 | 37890 ft | 498 kts | 184° |
| 2026-04-20 18:38 | 13.23608 | 38.88052 | 37895 ft | 498 kts | 184° |
| 2026-04-20 18:39 | 13.16673 | 38.87927 | 37890 ft | 498 kts | 184° |
| 2026-04-20 18:39 | 13.09738 | 38.87803 | 37876 ft | 500 kts | 184° |
| 2026-04-20 18:40 | 13.02774 | 38.87678 | 37880 ft | 501 kts | 184° |
| 2026-04-20 18:40 | 12.95794 | 38.87553 | 37884 ft | 500 kts | 184° |
| 2026-04-20 18:41 | 12.88832 | 38.87407 | 37881 ft | 500 kts | 185° |
| 2026-04-20 18:41 | 12.81929 | 38.87183 | 37887 ft | 500 kts | 184° |
| 2026-04-20 18:42 | 12.74960 | 38.87004 | 37905 ft | 501 kts | 184° |
| 2026-04-20 18:42 | 12.67988 | 38.86800 | 37912 ft | 502 kts | 185° |
| 2026-04-20 18:43 | 12.61006 | 38.86609 | 37928 ft | 501 kts | 185° |
| 2026-04-20 18:43 | 12.54038 | 38.86412 | 37923 ft | 500 kts | 184° |
| 2026-04-20 18:44 | 12.47081 | 38.86218 | 37947 ft | 498 kts | 184° |
| 2026-04-20 18:44 | 12.40152 | 38.86024 | 37964 ft | 499 kts | 184° |
| 2026-04-20 18:45 | 12.33221 | 38.85831 | 37971 ft | 499 kts | 184° |
| 2026-04-20 18:45 | 12.26274 | 38.85637 | 37980 ft | 498 kts | 184° |
| 2026-04-20 18:46 | 12.19390 | 38.85448 | 37978 ft | 498 kts | 184° |
| 2026-04-20 18:46 | 12.12420 | 38.85254 | 37989 ft | 498 kts | 184° |
| 2026-04-20 18:47 | 12.05531 | 38.85064 | 38007 ft | 498 kts | 184° |
| 2026-04-20 18:47 | 11.98606 | 38.84873 | 38006 ft | 497 kts | 184° |
| 2026-04-20 18:48 | 11.91689 | 38.84682 | 38013 ft | 496 kts | 184° |
| 2026-04-20 18:48 | 11.84798 | 38.84491 | 38002 ft | 496 kts | 184° |
| 2026-04-20 18:49 | 11.77884 | 38.84301 | 38017 ft | 496 kts | 184° |
| 2026-04-20 18:49 | 11.70974 | 38.84110 | 38025 ft | 496 kts | 184° |
| 2026-04-20 18:50 | 11.64087 | 38.83921 | 38022 ft | 494 kts | 184° |
| 2026-04-20 18:50 | 11.57212 | 38.83731 | 38027 ft | 494 kts | 184° |
| 2026-04-20 18:51 | 11.50331 | 38.83542 | 38030 ft | 495 kts | 184° |
| 2026-04-20 18:51 | 11.43490 | 38.83354 | 38030 ft | 494 kts | 184° |
| 2026-04-20 18:52 | 11.36608 | 38.83164 | 38020 ft | 494 kts | 184° |
| 2026-04-20 18:52 | 11.29734 | 38.82975 | 38019 ft | 494 kts | 184° |
| 2026-04-20 18:53 | 11.22865 | 38.82786 | 38015 ft | 494 kts | 184° |
| 2026-04-20 18:53 | 11.15994 | 38.82597 | 38023 ft | 494 kts | 183° |
| 2026-04-20 18:54 | 11.09143 | 38.82409 | 38022 ft | 491 kts | 183° |
| 2026-04-20 18:54 | 11.02311 | 38.82221 | 38037 ft | 491 kts | 183° |
| 2026-04-20 18:55 | 10.95508 | 38.82034 | 38038 ft | 492 kts | 183° |
| 2026-04-20 18:55 | 10.88648 | 38.81846 | 38049 ft | 492 kts | 183° |
| 2026-04-20 18:56 | 10.81806 | 38.81658 | 38061 ft | 491 kts | 182° |
| 2026-04-20 18:56 | 10.75018 | 38.81472 | 38062 ft | 490 kts | 182° |
| 2026-04-20 18:57 | 10.68194 | 38.81285 | 38057 ft | 491 kts | 182° |
| 2026-04-20 18:57 | 10.61364 | 38.81099 | 38057 ft | 491 kts | 182° |
| 2026-04-20 18:58 | 10.54533 | 38.80912 | 38049 ft | 491 kts | 182° |
| 2026-04-20 18:58 | 10.47707 | 38.80725 | 38047 ft | 491 kts | 182° |
| 2026-04-20 18:59 | 10.40880 | 38.80538 | 38045 ft | 490 kts | 182° |
| 2026-04-20 18:59 | 10.34070 | 38.80352 | 38049 ft | 490 kts | 182° |
| 2026-04-20 19:00 | 10.27262 | 38.80166 | 38053 ft | 489 kts | 182° |
| 2026-04-20 19:00 | 10.20449 | 38.79980 | 38066 ft | 490 kts | 183° |
| 2026-04-20 19:01 | 10.13672 | 38.79795 | 38068 ft | 490 kts | 182° |
| 2026-04-20 19:01 | 10.06861 | 38.79610 | 38094 ft | 490 kts | 183° |
| 2026-04-20 19:02 | 10.00040 | 38.79422 | 38129 ft | 490 kts | 182° |
| 2026-04-20 19:02 | 9.93219 | 38.79238 | 38129 ft | 490 kts | 182° |
| 2026-04-20 19:03 | 9.86393 | 38.79051 | 38163 ft | 491 kts | 182° |
| 2026-04-20 19:03 | 9.79573 | 38.78866 | 38164 ft | 490 kts | 182° |
| 2026-04-20 19:04 | 9.72751 | 38.78680 | 38198 ft | 490 kts | 182° |
| 2026-04-20 19:04 | 9.65926 | 38.78494 | 38238 ft | 490 kts | 182° |
| 2026-04-20 19:05 | 9.59109 | 38.78309 | 38237 ft | 490 kts | 182° |
| 2026-04-20 19:05 | 9.52299 | 38.78124 | 38263 ft | 489 kts | 182° |
| 2026-04-20 19:06 | 9.45536 | 38.77940 | 38262 ft | 489 kts | 182° |
| 2026-04-20 19:06 | 9.38728 | 38.77755 | 38285 ft | 488 kts | 182° |
| 2026-04-20 19:07 | 9.31948 | 38.77571 | 38291 ft | 488 kts | 182° |
| 2026-04-20 19:07 | 9.25154 | 38.77386 | 38292 ft | 488 kts | 182° |
| 2026-04-20 19:08 | 9.14990 | 38.77110 | 38308 ft | 489 kts | 182° |
| 2026-04-20 19:09 | 9.08295 | 38.76417 | 38320 ft | 482 kts | 194° |
| 2026-04-20 19:09 | 9.01757 | 38.74767 | 38299 ft | 484 kts | 194° |
| 2026-04-20 19:10 | 8.96323 | 38.73403 | 38302 ft | 484 kts | 194° |
| 2026-04-20 19:10 | 8.88673 | 38.71488 | 38299 ft | 484 kts | 194° |
| 2026-04-20 19:11 | 8.82122 | 38.69845 | 38283 ft | 484 kts | 194° |
| 2026-04-20 19:11 | 8.75577 | 38.68206 | 38275 ft | 484 kts | 194° |
| 2026-04-20 19:12 | 8.69079 | 38.66578 | 38268 ft | 484 kts | 194° |
| 2026-04-20 19:12 | 8.62534 | 38.64940 | 38249 ft | 484 kts | 194° |
| 2026-04-20 19:13 | 8.55983 | 38.63300 | 38338 ft | 489 kts | 194° |
| 2026-04-20 19:13 | 8.52681 | 38.62474 | 38659 ft | 488 kts | 194° |
| 2026-04-20 19:13 | 8.49381 | 38.61649 | 38997 ft | 487 kts | 194° |
| 2026-04-20 19:13 | 8.46094 | 38.60827 | 39275 ft | 486 kts | 194° |
| 2026-04-20 19:14 | 8.42812 | 38.60006 | 39523 ft | 486 kts | 194° |
| 2026-04-20 19:14 | 8.39513 | 38.59181 | 39752 ft | 486 kts | 194° |
| 2026-04-20 19:14 | 8.36234 | 38.58362 | 40004 ft | 485 kts | 194° |
| 2026-04-20 19:14 | 8.32954 | 38.57542 | 40231 ft | 486 kts | 194° |
| 2026-04-20 19:15 | 8.29663 | 38.56719 | 40222 ft | 490 kts | 194° |
| 2026-04-20 19:15 | 8.23067 | 38.55072 | 40216 ft | 485 kts | 194° |
| 2026-04-20 19:15 | 8.19798 | 38.54526 | 40240 ft | 483 kts | 182° |
| 2026-04-20 19:16 | 8.16393 | 38.54659 | 40228 ft | 485 kts | 171° |
| 2026-04-20 19:16 | 8.09934 | 38.56514 | 40212 ft | 488 kts | 162° |
| 2026-04-20 19:17 | 8.03510 | 38.58711 | 40197 ft | 487 kts | 162° |
| 2026-04-20 19:17 | 7.97081 | 38.60869 | 40192 ft | 485 kts | 161° |
| 2026-04-20 19:18 | 7.90682 | 38.63037 | 40174 ft | 483 kts | 161° |
| 2026-04-20 19:18 | 7.84299 | 38.65188 | 40180 ft | 483 kts | 161° |
| 2026-04-20 19:19 | 7.77948 | 38.67333 | 40144 ft | 484 kts | 161° |
| 2026-04-20 19:19 | 7.71555 | 38.69489 | 40145 ft | 484 kts | 161° |
| 2026-04-20 19:20 | 7.65147 | 38.71650 | 40151 ft | 487 kts | 161° |
| 2026-04-20 19:20 | 7.58713 | 38.73819 | 40154 ft | 488 kts | 161° |
| 2026-04-20 19:21 | 7.52270 | 38.75991 | 40159 ft | 488 kts | 161° |
| 2026-04-20 19:21 | 7.45866 | 38.78148 | 40166 ft | 489 kts | 161° |
| 2026-04-20 19:22 | 7.39418 | 38.80320 | 40167 ft | 487 kts | 161° |
| 2026-04-20 19:22 | 7.32989 | 38.82485 | 40152 ft | 485 kts | 161° |
| 2026-04-20 19:23 | 7.26602 | 38.84634 | 40171 ft | 484 kts | 161° |
| 2026-04-20 19:23 | 7.20197 | 38.86790 | 40175 ft | 485 kts | 161° |
| 2026-04-20 19:24 | 7.13785 | 38.88947 | 40177 ft | 486 kts | 161° |
| 2026-04-20 19:24 | 7.08451 | 38.90741 | 40178 ft | 487 kts | 161° |
| 2026-04-20 19:25 | 7.00911 | 38.93276 | 40185 ft | 491 kts | 161° |
| 2026-04-20 19:25 | 6.95482 | 38.95101 | 40190 ft | 491 kts | 161° |
| 2026-04-20 19:26 | 6.88995 | 38.97281 | 40189 ft | 491 kts | 161° |
| 2026-04-20 19:26 | 6.82533 | 38.99452 | 40181 ft | 492 kts | 161° |
| 2026-04-20 19:27 | 6.76038 | 39.01633 | 40178 ft | 493 kts | 161° |
| 2026-04-20 19:27 | 6.69536 | 39.03816 | 40167 ft | 492 kts | 161° |
| 2026-04-20 19:28 | 6.63042 | 39.05996 | 40167 ft | 493 kts | 161° |
| 2026-04-20 19:28 | 6.56529 | 39.08181 | 40152 ft | 494 kts | 161° |
| 2026-04-20 19:29 | 6.50012 | 39.10367 | 40150 ft | 492 kts | 161° |
| 2026-04-20 19:29 | 6.43521 | 39.12544 | 40117 ft | 490 kts | 161° |
| 2026-04-20 19:30 | 6.37064 | 39.14708 | 40085 ft | 489 kts | 160° |
| 2026-04-20 19:30 | 6.30625 | 39.16867 | 40090 ft | 491 kts | 161° |
| 2026-04-20 19:31 | 6.24130 | 39.19044 | 40080 ft | 492 kts | 161° |
| 2026-04-20 19:31 | 6.17644 | 39.21217 | 40080 ft | 491 kts | 161° |
| 2026-04-20 19:32 | 6.11181 | 39.23381 | 40063 ft | 488 kts | 161° |
| 2026-04-20 19:32 | 6.04725 | 39.25544 | 40066 ft | 490 kts | 161° |
| 2026-04-20 19:33 | 5.98255 | 39.27709 | 40064 ft | 491 kts | 160° |
| 2026-04-20 19:33 | 5.91809 | 39.29867 | 40063 ft | 490 kts | 161° |
| 2026-04-20 19:34 | 5.85335 | 39.32032 | 40059 ft | 489 kts | 161° |
| 2026-04-20 19:34 | 5.78880 | 39.34191 | 40059 ft | 489 kts | 161° |
| 2026-04-20 19:35 | 5.72419 | 39.36353 | 40055 ft | 489 kts | 161° |
| 2026-04-20 19:35 | 5.65948 | 39.38506 | 40059 ft | 489 kts | 163° |
| 2026-04-20 19:36 | 5.59294 | 39.39765 | 40058 ft | 491 kts | 170° |
| 2026-04-20 19:36 | 5.52549 | 39.40884 | 40057 ft | 491 kts | 169° |
| 2026-04-20 19:37 | 5.45820 | 39.42031 | 40052 ft | 491 kts | 170° |
| 2026-04-20 19:37 | 5.39082 | 39.43160 | 40047 ft | 490 kts | 170° |
| 2026-04-20 19:38 | 5.32355 | 39.44298 | 40053 ft | 490 kts | 170° |
| 2026-04-20 19:38 | 5.25624 | 39.45430 | 40041 ft | 491 kts | 170° |
| 2026-04-20 19:39 | 5.18871 | 39.46568 | 40051 ft | 493 kts | 170° |
| 2026-04-20 19:39 | 5.12106 | 39.47707 | 40035 ft | 493 kts | 170° |
| 2026-04-20 19:40 | 5.05386 | 39.48839 | 40025 ft | 492 kts | 170° |
| 2026-04-20 19:40 | 4.98630 | 39.49976 | 40031 ft | 491 kts | 170° |
| 2026-04-20 19:41 | 4.91868 | 39.51114 | 40025 ft | 493 kts | 170° |
| 2026-04-20 19:41 | 4.85095 | 39.52254 | 40022 ft | 494 kts | 170° |
| 2026-04-20 19:42 | 4.78312 | 39.53395 | 40012 ft | 494 kts | 170° |
| 2026-04-20 19:42 | 4.71537 | 39.54535 | 40015 ft | 493 kts | 170° |
| 2026-04-20 19:43 | 4.64768 | 39.55674 | 40011 ft | 493 kts | 170° |
| 2026-04-20 19:43 | 4.58006 | 39.56810 | 40008 ft | 492 kts | 170° |
| 2026-04-20 19:44 | 4.51297 | 39.57939 | 40013 ft | 492 kts | 170° |
| 2026-04-20 19:44 | 4.44550 | 39.59073 | 40010 ft | 491 kts | 169° |
| 2026-04-20 19:45 | 4.37813 | 39.60205 | 40011 ft | 490 kts | 169° |
| 2026-04-20 19:45 | 4.31080 | 39.61336 | 40012 ft | 491 kts | 169° |
| 2026-04-20 19:46 | 4.24325 | 39.62471 | 40017 ft | 492 kts | 169° |
| 2026-04-20 19:46 | 4.17554 | 39.63608 | 40021 ft | 494 kts | 169° |
| 2026-04-20 19:47 | 4.10818 | 39.64739 | 40028 ft | 493 kts | 169° |
| 2026-04-20 19:47 | 4.04041 | 39.65877 | 40013 ft | 493 kts | 170° |
| 2026-04-20 19:48 | 3.97248 | 39.66835 | 40002 ft | 493 kts | 173° |
| 2026-04-20 19:48 | 3.90421 | 39.67649 | 40004 ft | 494 kts | 173° |
| 2026-04-20 19:49 | 3.83593 | 39.68421 | 40004 ft | 494 kts | 173° |
| 2026-04-20 19:49 | 3.76771 | 39.69210 | 39997 ft | 493 kts | 173° |
| 2026-04-20 19:50 | 3.69968 | 39.69990 | 39997 ft | 492 kts | 173° |
| 2026-04-20 19:50 | 3.63200 | 39.70768 | 39989 ft | 491 kts | 173° |
| 2026-04-20 19:51 | 3.56395 | 39.71550 | 39988 ft | 491 kts | 173° |
| 2026-04-20 19:51 | 3.49607 | 39.72329 | 39980 ft | 490 kts | 173° |
| 2026-04-20 19:52 | 3.42829 | 39.73108 | 39977 ft | 491 kts | 173° |
| 2026-04-20 19:52 | 3.36080 | 39.73883 | 39977 ft | 492 kts | 173° |
| 2026-04-20 19:53 | 3.29258 | 39.74667 | 39994 ft | 493 kts | 173° |
| 2026-04-20 19:53 | 3.22468 | 39.75446 | 39976 ft | 494 kts | 173° |
| 2026-04-20 19:54 | 3.15643 | 39.76229 | 39973 ft | 492 kts | 173° |
| 2026-04-20 19:54 | 3.08848 | 39.77009 | 39962 ft | 490 kts | 173° |
| 2026-04-20 19:55 | 3.02078 | 39.77786 | 39951 ft | 491 kts | 173° |
| 2026-04-20 19:55 | 2.95268 | 39.78568 | 39953 ft | 492 kts | 173° |
| 2026-04-20 19:56 | 2.89650 | 39.79212 | 39970 ft | 493 kts | 173° |
| 2026-04-20 19:56 | 2.81690 | 39.80125 | 39971 ft | 492 kts | 173° |
| 2026-04-20 19:57 | 2.74890 | 39.80905 | 39967 ft | 492 kts | 173° |
| 2026-04-20 19:57 | 2.68084 | 39.81686 | 39960 ft | 493 kts | 173° |
| 2026-04-20 19:58 | 2.61268 | 39.82467 | 39965 ft | 493 kts | 173° |
| 2026-04-20 19:58 | 2.54440 | 39.83251 | 39955 ft | 494 kts | 173° |
| 2026-04-20 19:59 | 2.47608 | 39.84034 | 39961 ft | 494 kts | 173° |
| 2026-04-20 19:59 | 2.40817 | 39.84812 | 39954 ft | 494 kts | 173° |
| 2026-04-20 20:00 | 2.33972 | 39.85597 | 39957 ft | 494 kts | 173° |
| 2026-04-20 20:00 | 2.27148 | 39.86379 | 39952 ft | 492 kts | 173° |
| 2026-04-20 20:01 | 2.20368 | 39.87156 | 39942 ft | 491 kts | 173° |
| 2026-04-20 20:01 | 2.13579 | 39.87934 | 39946 ft | 490 kts | 173° |
| 2026-04-20 20:02 | 2.06800 | 39.88711 | 39932 ft | 490 kts | 173° |
| 2026-04-20 20:02 | 2.00006 | 39.89489 | 39927 ft | 490 kts | 173° |
| 2026-04-20 20:03 | 1.93270 | 39.90261 | 39931 ft | 491 kts | 173° |
| 2026-04-20 20:03 | 1.86480 | 39.91039 | 39932 ft | 491 kts | 173° |
| 2026-04-20 20:04 | 1.79691 | 39.91817 | 39933 ft | 491 kts | 173° |
| 2026-04-20 20:04 | 1.72904 | 39.92594 | 39943 ft | 491 kts | 173° |
| 2026-04-20 20:05 | 1.66116 | 39.93372 | 39945 ft | 490 kts | 173° |
| 2026-04-20 20:05 | 1.59334 | 39.94148 | 39930 ft | 490 kts | 173° |
| 2026-04-20 20:06 | 1.52557 | 39.94924 | 39929 ft | 489 kts | 173° |
| 2026-04-20 20:06 | 1.45843 | 39.95693 | 39927 ft | 489 kts | 173° |
| 2026-04-20 20:07 | 1.39093 | 39.96466 | 39928 ft | 489 kts | 173° |
| 2026-04-20 20:07 | 1.32325 | 39.97241 | 39928 ft | 490 kts | 173° |
| 2026-04-20 20:08 | 1.25543 | 39.98017 | 39940 ft | 491 kts | 173° |
| 2026-04-20 20:08 | 1.18740 | 39.98796 | 39940 ft | 491 kts | 173° |
| 2026-04-20 20:09 | 1.11962 | 39.99572 | 39941 ft | 488 kts | 173° |
| 2026-04-20 20:09 | 1.05249 | 40.00341 | 39933 ft | 487 kts | 173° |
| 2026-04-20 20:10 | 0.98476 | 40.01107 | 39932 ft | 487 kts | 175° |
| 2026-04-20 20:10 | 0.91751 | 40.00766 | 39949 ft | 490 kts | 185° |
| 2026-04-20 20:11 | 0.84967 | 40.00138 | 39931 ft | 489 kts | 184° |
| 2026-04-20 20:11 | 0.78173 | 39.99543 | 39947 ft | 489 kts | 185° |
| 2026-04-20 20:12 | 0.71402 | 39.98930 | 39935 ft | 489 kts | 184° |
| 2026-04-20 20:12 | 0.65764 | 39.98429 | 39937 ft | 489 kts | 185° |
| 2026-04-20 20:13 | 0.55600 | 39.97518 | 39940 ft | 489 kts | 184° |
| 2026-04-20 20:13 | 0.48821 | 39.96913 | 39942 ft | 489 kts | 184° |
| 2026-04-20 20:14 | 0.42037 | 39.96305 | 39946 ft | 489 kts | 184° |
| 2026-04-20 20:14 | 0.35248 | 39.95698 | 39940 ft | 489 kts | 184° |
| 2026-04-20 20:15 | 0.28468 | 39.95092 | 39942 ft | 489 kts | 184° |
| 2026-04-20 20:15 | 0.21731 | 39.94489 | 39942 ft | 489 kts | 184° |
| 2026-04-20 20:16 | 0.14944 | 39.93882 | 39934 ft | 488 kts | 184° |
| 2026-04-20 20:16 | 0.08160 | 39.93275 | 39932 ft | 489 kts | 184° |
| 2026-04-20 20:17 | 0.01383 | 39.92668 | 39935 ft | 489 kts | 184° |
| 2026-04-20 20:17 | -0.05392 | 39.92063 | 39946 ft | 489 kts | 185° |
| 2026-04-20 20:18 | -0.12133 | 39.91459 | 39947 ft | 490 kts | 185° |
| 2026-04-20 20:18 | -0.18931 | 39.90851 | 39947 ft | 488 kts | 184° |
| 2026-04-20 20:19 | -0.25698 | 39.90246 | 39947 ft | 489 kts | 184° |
| 2026-04-20 20:19 | -0.32472 | 39.89647 | 39940 ft | 487 kts | 182° |
| 2026-04-20 20:20 | -0.39255 | 39.89213 | 39938 ft | 489 kts | 184° |
| 2026-04-20 20:20 | -0.46013 | 39.88749 | 39939 ft | 489 kts | 182° |
| 2026-04-20 20:21 | -0.52813 | 39.88321 | 39933 ft | 489 kts | 183° |
| 2026-04-20 20:21 | -0.59592 | 39.87865 | 39943 ft | 489 kts | 183° |
| 2026-04-20 20:22 | -0.66394 | 39.87427 | 39942 ft | 488 kts | 183° |
| 2026-04-20 20:22 | -0.73174 | 39.86977 | 39943 ft | 489 kts | 183° |
| 2026-04-20 20:23 | -0.79961 | 39.86536 | 39949 ft | 489 kts | 183° |
| 2026-04-20 20:23 | -0.86756 | 39.86089 | 39946 ft | 489 kts | 183° |
| 2026-04-20 20:24 | -0.93528 | 39.85645 | 39941 ft | 488 kts | 183° |
| 2026-04-20 20:24 | -1.00277 | 39.85203 | 39943 ft | 488 kts | 184° |
| 2026-04-20 20:25 | -1.07063 | 39.84758 | 39950 ft | 489 kts | 183° |
| 2026-04-20 20:25 | -1.13841 | 39.84313 | 39945 ft | 488 kts | 183° |
| 2026-04-20 20:26 | -1.20643 | 39.83867 | 39942 ft | 489 kts | 184° |
| 2026-04-20 20:26 | -1.27393 | 39.83424 | 39941 ft | 489 kts | 184° |
| 2026-04-20 20:27 | -1.34198 | 39.82979 | 39941 ft | 489 kts | 184° |
| 2026-04-20 20:27 | -1.40992 | 39.82533 | 39938 ft | 489 kts | 184° |
| 2026-04-20 20:28 | -1.47784 | 39.82088 | 39939 ft | 488 kts | 184° |
| 2026-04-20 20:28 | -1.51181 | 39.81865 | 39510 ft | 490 kts | 184° |
| 2026-04-20 20:28 | -1.54605 | 39.81640 | 39164 ft | 490 kts | 184° |
| 2026-04-20 20:29 | -1.57992 | 39.81418 | 38994 ft | 487 kts | 183° |
| 2026-04-20 20:29 | -1.61363 | 39.81196 | 38710 ft | 485 kts | 183° |
| 2026-04-20 20:29 | -1.64736 | 39.80975 | 38414 ft | 484 kts | 183° |
| 2026-04-20 20:29 | -1.68088 | 39.80756 | 38185 ft | 482 kts | 183° |
| 2026-04-20 20:30 | -1.71423 | 39.80537 | 37982 ft | 478 kts | 183° |
| 2026-04-20 20:30 | -1.74744 | 39.80319 | 37648 ft | 478 kts | 183° |
| 2026-04-20 20:30 | -1.78057 | 39.80101 | 37398 ft | 476 kts | 183° |
| 2026-04-20 20:30 | -1.81312 | 39.79884 | 37207 ft | 474 kts | 183° |
| 2026-04-20 20:31 | -1.84590 | 39.79650 | 36969 ft | 472 kts | 183° |
| 2026-04-20 20:31 | -1.87858 | 39.79416 | 36740 ft | 470 kts | 183° |
| 2026-04-20 20:31 | -1.91124 | 39.79192 | 36524 ft | 468 kts | 183° |
| 2026-04-20 20:31 | -1.94382 | 39.78968 | 36316 ft | 467 kts | 183° |
| 2026-04-20 20:32 | -1.97616 | 39.78742 | 36098 ft | 465 kts | 183° |
| 2026-04-20 20:32 | -2.00843 | 39.78516 | 35886 ft | 464 kts | 183° |
| 2026-04-20 20:32 | -2.04061 | 39.78292 | 35680 ft | 462 kts | 183° |
| 2026-04-20 20:32 | -2.07261 | 39.78070 | 35170 ft | 459 kts | 182° |
| 2026-04-20 20:33 | -2.10439 | 39.77849 | 34611 ft | 458 kts | 182° |
| 2026-04-20 20:33 | -2.13584 | 39.77629 | 34060 ft | 457 kts | 182° |
| 2026-04-20 20:33 | -2.16751 | 39.77409 | 33469 ft | 455 kts | 182° |
| 2026-04-20 20:33 | -2.19901 | 39.77190 | 32915 ft | 452 kts | 182° |
| 2026-04-20 20:34 | -2.23019 | 39.76973 | 32372 ft | 449 kts | 182° |
| 2026-04-20 20:34 | -2.26125 | 39.76756 | 31828 ft | 446 kts | 182° |
| 2026-04-20 20:34 | -2.29208 | 39.76542 | 31292 ft | 443 kts | 182° |
| 2026-04-20 20:34 | -2.32270 | 39.76328 | 30764 ft | 440 kts | 182° |
| 2026-04-20 20:35 | -2.35322 | 39.76116 | 30225 ft | 437 kts | 182° |
| 2026-04-20 20:35 | -2.38349 | 39.75905 | 29669 ft | 434 kts | 182° |
| 2026-04-20 20:35 | -2.41342 | 39.75696 | 29147 ft | 429 kts | 182° |
| 2026-04-20 20:35 | -2.44311 | 39.75489 | 28629 ft | 424 kts | 182° |
| 2026-04-20 20:36 | -2.47236 | 39.75286 | 28128 ft | 420 kts | 182° |
| 2026-04-20 20:36 | -2.50136 | 39.75084 | 27676 ft | 414 kts | 182° |
| 2026-04-20 20:36 | -2.52968 | 39.74887 | 26495 ft | 425 kts | 182° |
| 2026-04-20 20:36 | -2.55934 | 39.74681 | 26139 ft | 418 kts | 182° |
| 2026-04-20 20:37 | -2.58772 | 39.74481 | 26131 ft | 399 kts | 182° |
| 2026-04-20 20:37 | -2.61537 | 39.74293 | 25519 ft | 398 kts | 180° |
| 2026-04-20 20:37 | -2.64280 | 39.74455 | 24876 ft | 393 kts | 172° |
| 2026-04-20 20:37 | -2.67054 | 39.74722 | 23247 ft | 413 kts | 173° |
| 2026-04-20 20:38 | -2.69895 | 39.74969 | 22936 ft | 403 kts | 173° |
| 2026-04-20 20:38 | -2.72674 | 39.75223 | 22244 ft | 400 kts | 173° |
| 2026-04-20 20:38 | -2.75427 | 39.75487 | 21666 ft | 396 kts | 173° |
| 2026-04-20 20:38 | -2.78161 | 39.75746 | 21075 ft | 392 kts | 173° |
| 2026-04-20 20:39 | -2.80863 | 39.75994 | 20490 ft | 388 kts | 173° |
| 2026-04-20 20:39 | -2.83540 | 39.76241 | 19907 ft | 384 kts | 173° |
| 2026-04-20 20:39 | -2.86190 | 39.76489 | 19347 ft | 381 kts | 172° |
| 2026-04-20 20:39 | -2.88818 | 39.76735 | 18789 ft | 377 kts | 172° |
| 2026-04-20 20:40 | -2.91418 | 39.76977 | 18245 ft | 373 kts | 172° |
| 2026-04-20 20:40 | -2.93996 | 39.77216 | 17617 ft | 370 kts | 172° |
| 2026-04-20 20:40 | -2.96553 | 39.77454 | 17022 ft | 366 kts | 172° |
| 2026-04-20 20:40 | -2.99073 | 39.77689 | 16409 ft | 362 kts | 172° |
| 2026-04-20 20:41 | -3.01569 | 39.77922 | 15802 ft | 358 kts | 172° |
| 2026-04-20 20:41 | -3.04037 | 39.78152 | 15199 ft | 355 kts | 172° |
| 2026-04-20 20:41 | -3.06457 | 39.78377 | 14629 ft | 352 kts | 172° |
| 2026-04-20 20:41 | -3.08875 | 39.78602 | 14266 ft | 339 kts | 172° |
| 2026-04-20 20:42 | -3.11096 | 39.78806 | 13757 ft | 313 kts | 172° |
| 2026-04-20 20:42 | -3.13243 | 39.79008 | 13119 ft | 306 kts | 172° |
| 2026-04-20 20:42 | -3.15358 | 39.79207 | 12408 ft | 303 kts | 172° |
| 2026-04-20 20:42 | -3.17452 | 39.79402 | 11983 ft | 299 kts | 172° |
| 2026-04-20 20:43 | -3.19496 | 39.79591 | 11592 ft | 292 kts | 172° |
| 2026-04-20 20:43 | -3.21515 | 39.79780 | 11100 ft | 291 kts | 172° |
| 2026-04-20 20:43 | -3.23525 | 39.79967 | 10651 ft | 288 kts | 172° |
| 2026-04-20 20:43 | -3.25509 | 39.80152 | 10183 ft | 286 kts | 172° |
| 2026-04-20 20:44 | -3.27488 | 39.80337 | 9730 ft | 284 kts | 172° |
| 2026-04-20 20:44 | -3.29436 | 39.80518 | 9221 ft | 281 kts | 172° |
| 2026-04-20 20:44 | -3.31383 | 39.80700 | 8727 ft | 279 kts | 173° |
| 2026-04-20 20:44 | -3.33303 | 39.80879 | 8253 ft | 276 kts | 173° |
| 2026-04-20 20:45 | -3.35182 | 39.81053 | 7909 ft | 268 kts | 173° |
| 2026-04-20 20:45 | -3.37043 | 39.81227 | 7428 ft | 267 kts | 173° |
| 2026-04-20 20:45 | -3.38886 | 39.81399 | 6976 ft | 265 kts | 173° |
| 2026-04-20 20:45 | -3.40708 | 39.81569 | 6645 ft | 259 kts | 173° |
| 2026-04-20 20:46 | -3.42513 | 39.81737 | 6424 ft | 261 kts | 173° |
| 2026-04-20 20:46 | -3.44323 | 39.81906 | 6177 ft | 260 kts | 173° |
| 2026-04-20 20:46 | -3.46131 | 39.82075 | 5931 ft | 259 kts | 173° |
| 2026-04-20 20:46 | -3.47903 | 39.82128 | 5732 ft | 260 kts | 189° |
| 2026-04-20 20:47 | -3.49641 | 39.81637 | 5601 ft | 260 kts | 192° |
| 2026-04-20 20:47 | -3.51369 | 39.81272 | 5447 ft | 247 kts | 189° |
| 2026-04-20 20:47 | -3.53014 | 39.80919 | 5309 ft | 238 kts | 191° |
| 2026-04-20 20:47 | -3.54610 | 39.80538 | 5170 ft | 234 kts | 191° |
| 2026-04-20 20:48 | -3.56195 | 39.80154 | 5040 ft | 234 kts | 191° |
| 2026-04-20 20:48 | -3.57783 | 39.79775 | 4914 ft | 234 kts | 191° |
| 2026-04-20 20:48 | -3.59367 | 39.79399 | 4788 ft | 234 kts | 191° |
| 2026-04-20 20:48 | -3.60928 | 39.79029 | 4664 ft | 225 kts | 191° |
| 2026-04-20 20:49 | -3.62447 | 39.78667 | 4520 ft | 223 kts | 191° |
| 2026-04-20 20:49 | -3.63948 | 39.78310 | 4380 ft | 221 kts | 191° |
| 2026-04-20 20:49 | -3.65424 | 39.77959 | 4251 ft | 220 kts | 191° |
| 2026-04-20 20:49 | -3.66935 | 39.77601 | 4121 ft | 219 kts | 192° |
| 2026-04-20 20:50 | -3.68388 | 39.77254 | 4075 ft | 217 kts | 191° |
| 2026-04-20 20:50 | -3.69863 | 39.76904 | 4073 ft | 219 kts | 192° |
| 2026-04-20 20:50 | -3.71358 | 39.76595 | 4074 ft | 218 kts | 187° |
| 2026-04-20 20:50 | -3.72850 | 39.76314 | 4071 ft | 219 kts | 193° |
| 2026-04-20 20:51 | -3.74280 | 39.75797 | 4068 ft | 219 kts | 205° |
| 2026-04-20 20:51 | -3.75629 | 39.75066 | 4079 ft | 222 kts | 206° |
| 2026-04-20 20:51 | -3.76978 | 39.74312 | 4081 ft | 222 kts | 207° |
| 2026-04-20 20:51 | -3.78330 | 39.73554 | 4064 ft | 220 kts | 206° |
| 2026-04-20 20:52 | -3.79647 | 39.72814 | 3970 ft | 215 kts | 207° |
| 2026-04-20 20:52 | -3.80902 | 39.72108 | 4004 ft | 197 kts | 207° |
| 2026-04-20 20:52 | -3.82104 | 39.71431 | 3995 ft | 202 kts | 206° |
| 2026-04-20 20:52 | -3.83298 | 39.70758 | 3991 ft | 191 kts | 206° |
| 2026-04-20 20:53 | -3.84464 | 39.70104 | 3818 ft | 195 kts | 206° |
| 2026-04-20 20:53 | -3.85652 | 39.69436 | 3570 ft | 191 kts | 206° |
| 2026-04-20 20:53 | -3.86783 | 39.68800 | 3335 ft | 188 kts | 206° |
| 2026-04-20 20:53 | -3.87913 | 39.68165 | 3089 ft | 185 kts | 207° |
| 2026-04-20 20:54 | -3.89028 | 39.67538 | 2845 ft | 182 kts | 206° |
| 2026-04-20 20:54 | -3.90125 | 39.66922 | 2626 ft | 175 kts | 207° |
| 2026-04-20 20:54 | -3.91151 | 39.66344 | 2394 ft | 166 kts | 207° |
| 2026-04-20 20:54 | -3.92161 | 39.65777 | 2186 ft | 166 kts | 207° |
| 2026-04-20 20:55 | -3.93147 | 39.65221 | 1975 ft | 162 kts | 207° |
| 2026-04-20 20:55 | -3.94131 | 39.64669 | 1771 ft | 164 kts | 207° |
| 2026-04-20 20:55 | -3.95097 | 39.64125 | 1564 ft | 153 kts | 207° |
| 2026-04-20 20:55 | -3.95980 | 39.63636 | 1369 ft | 140 kts | 207° |
| 2026-04-20 20:56 | -3.96813 | 39.63169 | 1219 ft | 140 kts | 209° |
| 2026-04-20 20:56 | -3.97658 | 39.62691 | 1028 ft | 141 kts | 210° |
| 2026-04-20 20:56 | -3.98506 | 39.62212 | 843 ft | 139 kts | 209° |
| 2026-04-20 20:56 | -3.99340 | 39.61746 | 726 ft | 140 kts | 210° |
| 2026-04-20 20:57 | -4.00202 | 39.61270 | 531 ft | 143 kts | 210° |
| 2026-04-20 20:57 | -4.01059 | 39.60792 | 321 ft | 140 kts | 211° |
| 2026-04-20 20:57 | -4.01861 | 39.60331 | 215 ft | 108 kts | 208° |
| 2026-04-20 20:57 | -4.02267 | 39.60114 | 216 ft | 49 kts | 209° |
| 2026-04-20 20:58 | -4.02549 | 39.59955 | 216 ft | 44 kts | 209° |
| 2026-04-20 20:58 | -4.02771 | 39.59848 | 216 ft | 32 kts | 210° |
| 2026-04-20 20:58 | -4.02950 | 39.59732 | 220 ft | 30 kts | 213° |
| 2026-04-20 20:58 | -4.03124 | 39.59631 | 217 ft | 28 kts | 209° |
| 2026-04-20 20:59 | -4.03237 | 39.59568 | 219 ft | 27 kts | 208° |
| 2026-04-20 20:59 | -4.03398 | 39.59513 | 215 ft | 5 kts | 123° |
| 2026-04-20 20:59 | -4.03396 | 39.59536 | 216 ft | 14 kts | 72° |
| 2026-04-20 20:59 | -4.03322 | 39.59884 | 218 ft | 45 kts | 91° |
| 2026-04-20 21:00 | -4.03312 | 39.60043 | 217 ft | 20 kts | 58° |
| 2026-04-20 21:00 | -4.03204 | 39.60110 | 220 ft | 19 kts | 29° |
| 2026-04-20 21:00 | -4.03112 | 39.60160 | 212 ft | 0 kts | 28° |
| 2026-04-20 21:00 | -4.03104 | 39.60165 | 215 ft | 3 kts | 29° |
| 2026-04-20 21:01 | -4.03089 | 39.60181 | 215 ft | 3 kts | 65° |
| 2026-04-20 21:01 | -4.03093 | 39.60212 | 215 ft | 7 kts | 110° |
| 2026-04-20 21:01 | -4.03112 | 39.60249 | 217 ft | 2 kts | 120° |
| 2026-04-20 21:01 | -4.03113 | 39.60251 | 217 ft | 0 kts | 120° |